Wetterdaten: aktuell Montag, 01.06.2020 15:40
Datum Zeit Temp. Aussen Temp. o. S. Temp +5cm Feuchte Auss Luftdruck Regen Sonnenschein Regendauer Solar Windben Empfang
01.06.2020 15:40 28,9 C 32,8 C 26,1 C 41 % 1020,7 hPa 0,0 l/m 2 min 0 min 884 W/m 6,4 km/h (2 Bft) 97,87 %
01.06.2020 15:38 28,9 C 32,8 C 26,1 C 39 % 1020,7 hPa 0,0 l/m 2 min 0 min 886 W/m 3,2 km/h (1 Bft) 97,83 %
01.06.2020 15:36 28,9 C 33,3 C 26,1 C 43 % 1020,7 hPa 0,0 l/m 2 min 0 min 888 W/m 6,4 km/h (2 Bft) 97,87 %
01.06.2020 15:34 28,9 C 32,8 C 26,1 C 41 % 1020,7 hPa 0,0 l/m 2 min 0 min 892 W/m 6,4 km/h (2 Bft) 97,87 %
01.06.2020 15:32 28,9 C 33,3 C 26,1 C 41 % 1020,8 hPa 0,0 l/m 2 min 0 min 892 W/m 6,4 km/h (2 Bft) 95,74 %
01.06.2020 15:30 28,8 C 32,8 C 26,1 C 43 % 1020,8 hPa 0,0 l/m 2 min 0 min 897 W/m 6,4 km/h (2 Bft) 95,74 %
01.06.2020 15:28 28,8 C 32,8 C 26,1 C 40 % 1020,8 hPa 0,0 l/m 2 min 0 min 904 W/m 6,4 km/h (2 Bft) 95,74 %
01.06.2020 15:26 28,9 C 32,8 C 25,6 C 41 % 1020,8 hPa 0,0 l/m 2 min 0 min 911 W/m 6,4 km/h (2 Bft) 95,65 %
01.06.2020 15:24 28,9 C 32,2 C 25,6 C 42 % 1020,9 hPa 0,0 l/m 2 min 0 min 912 W/m 3,2 km/h (1 Bft) 95,74 %
01.06.2020 15:22 28,9 C 32,2 C 25,6 C 41 % 1020,9 hPa 0,0 l/m 2 min 0 min 909 W/m 3,2 km/h (1 Bft) 95,74 %
01.06.2020 15:20 28,9 C 31,1 C 26,1 C 39 % 1020,9 hPa 0,0 l/m 2 min 0 min 911 W/m 12,9 km/h (3 Bft) 95,74 %
01.06.2020 15:18 28,9 C 32,8 C 26,1 C 41 % 1020,9 hPa 0,0 l/m 2 min 0 min 906 W/m 6,4 km/h (2 Bft) 93,62 %
01.06.2020 15:16 28,9 C 32,8 C 26,1 C 45 % 1020,9 hPa 0,0 l/m 2 min 0 min 913 W/m 3,2 km/h (1 Bft) 93,62 %
01.06.2020 15:14 28,9 C 32,2 C 26,1 C 40 % 1021,0 hPa 0,0 l/m 2 min 0 min 916 W/m 3,2 km/h (1 Bft) 95,65 %
01.06.2020 15:12 28,9 C 32,8 C 26,1 C 41 % 1020,9 hPa 0,0 l/m 2 min 0 min 924 W/m 6,4 km/h (2 Bft) 93,62 %
01.06.2020 15:10 28,9 C 32,8 C 26,1 C 40 % 1020,9 hPa 0,0 l/m 2 min 0 min 927 W/m 9,7 km/h (2 Bft) 93,62 %
01.06.2020 15:08 28,9 C 32,8 C 26,1 C 41 % 1020,9 hPa 0,0 l/m 2 min 0 min 931 W/m 6,4 km/h (2 Bft) 95,74 %
01.06.2020 15:06 28,9 C 32,8 C 26,1 C 43 % 1021,0 hPa 0,0 l/m 2 min 0 min 933 W/m 9,7 km/h (2 Bft) 97,87 %
01.06.2020 15:04 28,9 C 32,8 C 26,1 C 42 % 1021,0 hPa 0,0 l/m 2 min 0 min 936 W/m 6,4 km/h (2 Bft) 95,74 %
01.06.2020 15:02 28,9 C 32,8 C 26,1 C 40 % 1020,9 hPa 0,0 l/m 2 min 0 min 940 W/m 6,4 km/h (2 Bft) 93,48 %
01.06.2020 15:00 28,9 C 33,9 C 26,1 C 41 % 1021,0 hPa 0,0 l/m 2 min 0 min 943 W/m 3,2 km/h (1 Bft) 95,74 %
01.06.2020 14:58 28,9 C 33,9 C 26,1 C 42 % 1021,0 hPa 0,0 l/m 2 min 0 min 942 W/m 6,4 km/h (2 Bft) 95,74 %
01.06.2020 14:56 28,8 C 33,3 C 26,1 C 43 % 1021,0 hPa 0,0 l/m 2 min 0 min 945 W/m 3,2 km/h (1 Bft) 93,62 %
01.06.2020 14:54 28,8 C 33,3 C 26,1 C 42 % 1021,0 hPa 0,0 l/m 2 min 0 min 946 W/m 3,2 km/h (1 Bft) 95,74 %
01.06.2020 14:52 28,7 C 33,9 C 26,1 C 43 % 1021,1 hPa 0,0 l/m 2 min 0 min 951 W/m 3,2 km/h (1 Bft) 97,87 %
01.06.2020 14:50 28,7 C 33,3 C 26,1 C 42 % 1021,0 hPa 0,0 l/m 2 min 0 min 955 W/m 9,7 km/h (2 Bft) 95,65 %
01.06.2020 14:48 28,7 C 33,9 C 26,1 C 43 % 1021,1 hPa 0,0 l/m 2 min 0 min 956 W/m 9,7 km/h (2 Bft) 97,87 %
01.06.2020 14:46 28,6 C 33,3 C 26,1 C 42 % 1021,1 hPa 0,0 l/m 2 min 0 min 960 W/m 3,2 km/h (1 Bft) 95,74 %
01.06.2020 14:44 28,6 C 33,3 C 26,1 C 42 % 1021,1 hPa 0,0 l/m 2 min 0 min 962 W/m 6,4 km/h (2 Bft) 97,87 %
01.06.2020 14:42 28,5 C 33,3 C 26,7 C 41 % 1021,1 hPa 0,0 l/m 2 min 0 min 962 W/m 6,4 km/h (2 Bft) 100,00 %
01.06.2020 14:40 28,4 C 33,3 C 26,1 C 42 % 1021,1 hPa 0,0 l/m 2 min 0 min 960 W/m 6,4 km/h (2 Bft) 97,87 %
01.06.2020 14:38 28,3 C 33,3 C 26,7 C 43 % 1021,1 hPa 0,0 l/m 2 min 0 min 964 W/m 6,4 km/h (2 Bft) 97,83 %
01.06.2020 14:36 28,3 C 33,9 C 26,1 C 42 % 1021,1 hPa 0,0 l/m 2 min 0 min 968 W/m 6,4 km/h (2 Bft) 100,00 %
01.06.2020 14:34 28,3 C 33,3 C 26,1 C 42 % 1021,2 hPa 0,0 l/m 2 min 0 min 969 W/m 0,0 km/h (0 Bft) 100,00 %
01.06.2020 14:32 28,2 C 32,2 C 26,1 C 42 % 1021,2 hPa 0,0 l/m 2 min 0 min 974 W/m 12,9 km/h (3 Bft) 100,00 %
01.06.2020 14:30 28,3 C 32,2 C 26,1 C 40 % 1021,2 hPa 0,0 l/m 2 min 0 min 974 W/m 6,4 km/h (2 Bft) 97,87 %
01.06.2020 14:28 28,3 C 31,7 C 26,1 C 39 % 1021,2 hPa 0,0 l/m 2 min 0 min 978 W/m 6,4 km/h (2 Bft) 97,83 %
01.06.2020 14:26 28,3 C 32,2 C 26,7 C 41 % 1021,2 hPa 0,0 l/m 2 min 0 min 978 W/m 9,7 km/h (2 Bft) 100,00 %
01.06.2020 14:24 28,3 C 32,2 C 26,7 C 41 % 1021,2 hPa 0,0 l/m 2 min 0 min 977 W/m 16,1 km/h (3 Bft) 97,87 %
01.06.2020 14:22 28,3 C 33,3 C 27,2 C 41 % 1021,2 hPa 0,0 l/m 2 min 0 min 977 W/m 9,7 km/h (2 Bft) 95,74 %
01.06.2020 14:20 28,3 C 33,3 C 27,2 C 42 % 1021,2 hPa 0,0 l/m 2 min 0 min 977 W/m 9,7 km/h (2 Bft) 100,00 %
01.06.2020 14:18 28,3 C 33,3 C 27,2 C 44 % 1021,3 hPa 0,0 l/m 2 min 0 min 981 W/m 3,2 km/h (1 Bft) 97,87 %
01.06.2020 14:16 28,3 C 32,2 C 26,7 C 39 % 1021,4 hPa 0,0 l/m 2 min 0 min 981 W/m 12,9 km/h (3 Bft) 100,00 %
01.06.2020 14:14 28,3 C 32,2 C 27,2 C 39 % 1021,4 hPa 0,0 l/m 2 min 0 min 983 W/m 6,4 km/h (2 Bft) 100,00 %
01.06.2020 14:12 28,3 C 32,8 C 27,8 C 40 % 1021,5 hPa 0,0 l/m 2 min 0 min 983 W/m 12,9 km/h (3 Bft) 97,87 %
01.06.2020 14:10 28,3 C 33,3 C 28,9 C 42 % 1021,5 hPa 0,0 l/m 2 min 0 min 982 W/m 0,0 km/h (0 Bft) 100,00 %
01.06.2020 14:08 28,3 C 33,3 C 29,4 C 42 % 1021,5 hPa 0,0 l/m 2 min 0 min 979 W/m 3,2 km/h (1 Bft) 100,00 %
01.06.2020 14:06 28,2 C 33,3 C 30,6 C 43 % 1021,5 hPa 0,0 l/m 2 min 0 min 983 W/m 9,7 km/h (2 Bft) 100,00 %
01.06.2020 14:04 28,2 C 33,3 C 31,1 C 42 % 1021,5 hPa 0,0 l/m 2 min 0 min 984 W/m 9,7 km/h (2 Bft) 100,00 %
01.06.2020 14:02 28,1 C 33,3 C 32,8 C 44 % 1021,5 hPa 0,0 l/m 2 min 0 min 988 W/m 6,4 km/h (2 Bft) 97,87 %
01.06.2020 14:00 28,1 C 33,3 C 33,9 C 42 % 1021,4 hPa 0,0 l/m 2 min 0 min 985 W/m 3,2 km/h (1 Bft) 100,00 %
01.06.2020 13:58 28,1 C 33,3 C 34,4 C 42 % 1021,5 hPa 0,0 l/m 2 min 0 min 983 W/m 6,4 km/h (2 Bft) 97,87 %
01.06.2020 13:56 27,9 C 33,9 C 34,4 C 45 % 1021,5 hPa 0,0 l/m 2 min 0 min 985 W/m 6,4 km/h (2 Bft) 97,87 %
01.06.2020 13:54 27,9 C 32,8 C 33,3 C 44 % 1021,5 hPa 0,0 l/m 2 min 0 min 986 W/m 6,4 km/h (2 Bft) 97,87 %
01.06.2020 13:52 27,9 C 32,2 C 32,8 C 42 % 1021,5 hPa 0,0 l/m 2 min 0 min 988 W/m 6,4 km/h (2 Bft) 95,65 %
01.06.2020 13:50 27,9 C 31,7 C 32,8 C 39 % 1021,5 hPa 0,0 l/m 2 min 0 min 988 W/m 6,4 km/h (2 Bft) 97,87 %
01.06.2020 13:48 27,9 C 32,2 C 32,8 C 41 % 1021,5 hPa 0,0 l/m 2 min 0 min 987 W/m 6,4 km/h (2 Bft) 97,87 %
01.06.2020 13:46 27,9 C 32,2 C 34,4 C 41 % 1021,5 hPa 0,0 l/m 2 min 0 min 986 W/m 9,7 km/h (2 Bft) 97,87 %
01.06.2020 13:44 27,9 C 32,8 C 35,6 C 43 % 1021,6 hPa 0,0 l/m 2 min 0 min 986 W/m 12,9 km/h (3 Bft) 97,87 %
01.06.2020 13:42 27,8 C 32,8 C 35,0 C 44 % 1021,6 hPa 0,0 l/m 2 min 0 min 983 W/m 6,4 km/h (2 Bft) 97,87 %
01.06.2020 13:40 27,8 C 32,8 C 33,9 C 43 % 1021,6 hPa 0,0 l/m 2 min 0 min 984 W/m 6,4 km/h (2 Bft) 97,83 %
01.06.2020 13:38 27,8 C 32,2 C 33,3 C 46 % 1021,6 hPa 0,0 l/m 2 min 0 min 986 W/m 6,4 km/h (2 Bft) 97,87 %
01.06.2020 13:36 27,8 C 31,7 C 31,1 C 41 % 1021,6 hPa 0,0 l/m 2 min 0 min 987 W/m 12,9 km/h (3 Bft) 95,74 %
01.06.2020 13:34 27,8 C 32,2 C 29,4 C 43 % 1021,7 hPa 0,0 l/m 2 min 0 min 987 W/m 19,3 km/h (3 Bft) 97,87 %
01.06.2020 13:32 27,8 C 32,2 C 28,3 C 44 % 1021,6 hPa 0,0 l/m 2 min 0 min 989 W/m 16,1 km/h (3 Bft) 97,87 %
01.06.2020 13:30 27,8 C 32,2 C 28,3 C 42 % 1021,6 hPa 0,0 l/m 2 min 0 min 991 W/m 9,7 km/h (2 Bft) 97,83 %
01.06.2020 13:28 27,8 C 32,2 C 27,8 C 42 % 1021,7 hPa 0,0 l/m 2 min 0 min 988 W/m 9,7 km/h (2 Bft) 97,87 %
01.06.2020 13:26 27,8 C 32,8 C 27,8 C 43 % 1021,7 hPa 0,0 l/m 2 min 0 min 987 W/m 9,7 km/h (2 Bft) 97,87 %
01.06.2020 13:24 27,8 C 32,2 C 27,2 C 44 % 1021,7 hPa 0,0 l/m 2 min 0 min 987 W/m 6,4 km/h (2 Bft) 97,87 %
01.06.2020 13:22 27,8 C 32,8 C 27,2 C 44 % 1021,7 hPa 0,0 l/m 2 min 0 min 984 W/m 12,9 km/h (3 Bft) 97,87 %
01.06.2020 13:20 27,8 C 32,8 C 26,7 C 45 % 1021,7 hPa 0,0 l/m 2 min 0 min 983 W/m 6,4 km/h (2 Bft) 97,87 %
01.06.2020 13:18 27,8 C 32,2 C 26,7 C 43 % 1021,7 hPa 0,0 l/m 2 min 0 min 982 W/m 6,4 km/h (2 Bft) 97,83 %
01.06.2020 13:16 27,8 C 33,3 C 26,7 C 46 % 1021,7 hPa 0,0 l/m 2 min 0 min 985 W/m 6,4 km/h (2 Bft) 95,74 %
01.06.2020 13:14 27,7 C 33,3 C 27,2 C 45 % 1021,7 hPa 0,0 l/m 2 min 0 min 986 W/m 3,2 km/h (1 Bft) 97,87 %
01.06.2020 13:12 27,7 C 33,3 C 27,2 C 46 % 1021,7 hPa 0,0 l/m 2 min 0 min 990 W/m 6,4 km/h (2 Bft) 97,87 %
01.06.2020 13:10 27,6 C 32,8 C 27,2 C 43 % 1021,8 hPa 0,0 l/m 2 min 0 min 986 W/m 6,4 km/h (2 Bft) 97,87 %
01.06.2020 13:08 27,6 C 32,8 C 27,2 C 44 % 1021,8 hPa 0,0 l/m 2 min 0 min 988 W/m 9,7 km/h (2 Bft) 95,74 %
01.06.2020 13:06 27,6 C 32,8 C 26,7 C 47 % 1021,8 hPa 0,0 l/m 2 min 0 min 985 W/m 12,9 km/h (3 Bft) 97,83 %
01.06.2020 13:04 27,5 C 32,8 C 26,7 C 46 % 1021,8 hPa 0,0 l/m 2 min 0 min 979 W/m 3,2 km/h (1 Bft) 97,87 %
01.06.2020 13:02 27,4 C 32,2 C 26,7 C 44 % 1021,8 hPa 0,0 l/m 2 min 0 min 976 W/m 16,1 km/h (3 Bft) 97,87 %
01.06.2020 13:00 27,4 C 32,8 C 26,7 C 45 % 1021,9 hPa 0,0 l/m 2 min 0 min 974 W/m 12,9 km/h (3 Bft) 97,87 %
01.06.2020 12:58 27,4 C 33,3 C 26,7 C 48 % 1021,8 hPa 0,0 l/m 2 min 0 min 971 W/m 3,2 km/h (1 Bft) 97,87 %
01.06.2020 12:56 27,3 C 32,8 C 26,7 C 47 % 1021,8 hPa 0,0 l/m 2 min 0 min 973 W/m 6,4 km/h (2 Bft) 97,87 %
01.06.2020 12:54 27,2 C 33,3 C 26,7 C 47 % 1021,9 hPa 0,0 l/m 2 min 0 min 972 W/m 6,4 km/h (2 Bft) 95,65 %
01.06.2020 12:52 27,2 C 32,8 C 26,1 C 48 % 1021,9 hPa 0,0 l/m 2 min 0 min 973 W/m 3,2 km/h (1 Bft) 97,87 %
01.06.2020 12:50 27,2 C 32,2 C 26,1 C 46 % 1021,9 hPa 0,0 l/m 2 min 0 min 968 W/m 6,4 km/h (2 Bft) 97,87 %
01.06.2020 12:48 27,1 C 31,7 C 26,7 C 47 % 1021,9 hPa 0,0 l/m 2 min 0 min 969 W/m 19,3 km/h (3 Bft) 97,87 %
01.06.2020 12:46 27,1 C 32,2 C 26,7 C 45 % 1021,9 hPa 0,0 l/m 2 min 0 min 970 W/m 16,1 km/h (3 Bft) 97,87 %
01.06.2020 12:44 27,1 C 32,2 C 26,7 C 47 % 1021,9 hPa 0,0 l/m 2 min 0 min 968 W/m 3,2 km/h (1 Bft) 97,87 %
01.06.2020 12:42 27,1 C 31,7 C 26,7 C 45 % 1022,0 hPa 0,0 l/m 2 min 0 min 964 W/m 6,4 km/h (2 Bft) 100,00 %
01.06.2020 12:40 27,0 C 31,7 C 27,2 C 45 % 1022,0 hPa 0,0 l/m 2 min 0 min 961 W/m 6,4 km/h (2 Bft) 97,87 %
01.06.2020 12:38 27,0 C 31,7 C 26,7 C 46 % 1022,0 hPa 0,0 l/m 2 min 0 min 958 W/m 12,9 km/h (3 Bft) 95,74 %
01.06.2020 12:36 26,9 C 32,2 C 26,7 C 48 % 1022,0 hPa 0,0 l/m 2 min 0 min 954 W/m 3,2 km/h (1 Bft) 93,62 %
01.06.2020 12:34 26,9 C 31,1 C 26,1 C 47 % 1022,0 hPa 0,0 l/m 2 min 0 min 956 W/m 9,7 km/h (2 Bft) 95,74 %
01.06.2020 12:32 26,8 C 31,1 C 26,1 C 45 % 1022,0 hPa 0,0 l/m 2 min 0 min 953 W/m 12,9 km/h (3 Bft) 93,62 %
01.06.2020 12:30 26,8 C 31,7 C 26,1 C 46 % 1022,0 hPa 0,0 l/m 2 min 0 min 954 W/m 6,4 km/h (2 Bft) 95,65 %
01.06.2020 12:28 26,8 C 31,7 C 26,1 C 47 % 1022,0 hPa 0,0 l/m 2 min 0 min 949 W/m 6,4 km/h (2 Bft) 95,74 %
01.06.2020 12:26 26,8 C 31,7 C 26,1 C 48 % 1022,1 hPa 0,0 l/m 2 min 0 min 952 W/m 9,7 km/h (2 Bft) 95,74 %
01.06.2020 12:24 26,7 C 31,1 C 26,1 C 45 % 1022,1 hPa 0,0 l/m 2 min 0 min 948 W/m 12,9 km/h (3 Bft) 95,74 %
01.06.2020 12:22 26,7 C 31,1 C 25,6 C 46 % 1022,0 hPa 0,0 l/m 2 min 0 min 944 W/m 12,9 km/h (3 Bft) 95,74 %
01.06.2020 12:20 26,7 C 32,2 C 26,1 C 47 % 1022,1 hPa 0,0 l/m 2 min 0 min 941 W/m 6,4 km/h (2 Bft) 97,83 %
01.06.2020 12:18 26,6 C 32,2 C 25,6 C 48 % 1022,1 hPa 0,0 l/m 2 min 0 min 939 W/m 9,7 km/h (2 Bft) 97,87 %
01.06.2020 12:16 26,6 C 31,7 C 25,6 C 48 % 1022,1 hPa 0,0 l/m 2 min 0 min 936 W/m 9,7 km/h (2 Bft) 95,74 %
01.06.2020 12:14 26,5 C 31,7 C 25,6 C 47 % 1022,1 hPa 0,0 l/m 2 min 0 min 933 W/m 6,4 km/h (2 Bft) 97,87 %
01.06.2020 12:12 26,4 C 32,2 C 25,6 C 49 % 1022,2 hPa 0,0 l/m 2 min 0 min 929 W/m 3,2 km/h (1 Bft) 97,87 %
01.06.2020 12:10 26,4 C 31,1 C 25,0 C 45 % 1022,1 hPa 0,0 l/m 2 min 0 min 928 W/m 6,4 km/h (2 Bft) 97,87 %
01.06.2020 12:08 26,4 C 31,7 C 25,6 C 47 % 1022,1 hPa 0,0 l/m 4 min 0 min 927 W/m 6,4 km/h (2 Bft) 97,85 %
01.06.2020 12:04 26,3 C 31,1 C 25,6 C 47 % 1022,2 hPa 0,0 l/m 2 min 0 min 925 W/m 9,7 km/h (2 Bft) 97,87 %
01.06.2020 12:02 26,3 C 31,7 C 25,6 C 49 % 1022,1 hPa 0,0 l/m 2 min 0 min 922 W/m 9,7 km/h (2 Bft) 97,87 %
01.06.2020 12:00 26,2 C 31,1 C 25,6 C 49 % 1022,1 hPa 0,0 l/m 2 min 0 min 916 W/m 6,4 km/h (2 Bft) 93,62 %
01.06.2020 11:58 26,2 C 31,1 C 25,6 C 49 % 1022,2 hPa 0,0 l/m 2 min 0 min 917 W/m 6,4 km/h (2 Bft) 97,87 %
01.06.2020 11:56 26,2 C 31,1 C 25,6 C 47 % 1022,2 hPa 0,0 l/m 2 min 0 min 916 W/m 12,9 km/h (3 Bft) 97,83 %
01.06.2020 11:54 26,1 C 31,1 C 25,6 C 48 % 1022,2 hPa 0,0 l/m 2 min 0 min 910 W/m 12,9 km/h (3 Bft) 97,87 %
01.06.2020 11:52 26,1 C 31,1 C 26,1 C 48 % 1022,2 hPa 0,0 l/m 2 min 0 min 906 W/m 6,4 km/h (2 Bft) 95,74 %
01.06.2020 11:50 26,0 C 31,7 C 26,7 C 51 % 1022,2 hPa 0,0 l/m 2 min 0 min 901 W/m 6,4 km/h (2 Bft) 97,87 %
01.06.2020 11:48 25,9 C 31,1 C 26,7 C 49 % 1022,3 hPa 0,0 l/m 2 min 0 min 898 W/m 6,4 km/h (2 Bft) 97,87 %
01.06.2020 11:46 25,9 C 31,1 C 26,1 C 51 % 1022,2 hPa 0,0 l/m 2 min 0 min 893 W/m 3,2 km/h (1 Bft) 95,74 %
01.06.2020 11:44 25,8 C 30,6 C 25,6 C 49 % 1022,3 hPa 0,0 l/m 2 min 0 min 888 W/m 9,7 km/h (2 Bft) 97,83 %
01.06.2020 11:42 25,8 C 30,6 C 25,6 C 49 % 1022,3 hPa 0,0 l/m 2 min 0 min 888 W/m 6,4 km/h (2 Bft) 97,87 %
01.06.2020 11:40 25,8 C 30,6 C 25,6 C 50 % 1022,4 hPa 0,0 l/m 2 min 0 min 885 W/m 16,1 km/h (3 Bft) 100,00 %
01.06.2020 11:38 25,7 C 30,6 C 25,0 C 49 % 1022,3 hPa 0,0 l/m 2 min 0 min 883 W/m 3,2 km/h (1 Bft) 97,87 %
01.06.2020 11:36 25,7 C 30,6 C 25,0 C 50 % 1022,3 hPa 0,0 l/m 2 min 0 min 876 W/m 6,4 km/h (2 Bft) 100,00 %
01.06.2020 11:34 25,6 C 30,0 C 24,4 C 51 % 1022,4 hPa 0,0 l/m 2 min 0 min 875 W/m 6,4 km/h (2 Bft) 97,87 %
01.06.2020 11:32 25,6 C 30,0 C 24,4 C 49 % 1022,4 hPa 0,0 l/m 2 min 0 min 874 W/m 9,7 km/h (2 Bft) 97,83 %
01.06.2020 11:30 25,6 C 30,0 C 25,0 C 49 % 1022,4 hPa 0,0 l/m 2 min 0 min 872 W/m 6,4 km/h (2 Bft) 97,87 %
01.06.2020 11:28 25,6 C 30,0 C 25,0 C 48 % 1022,4 hPa 0,0 l/m 2 min 0 min 868 W/m 12,9 km/h (3 Bft) 100,00 %
01.06.2020 11:26 25,6 C 30,0 C 25,0 C 49 % 1022,4 hPa 0,0 l/m 2 min 0 min 863 W/m 6,4 km/h (2 Bft) 97,87 %
01.06.2020 11:24 25,6 C 30,0 C 25,0 C 48 % 1022,5 hPa 0,0 l/m 2 min 0 min 856 W/m 9,7 km/h (2 Bft) 97,87 %
01.06.2020 11:22 25,5 C 30,0 C 25,6 C 49 % 1022,5 hPa 0,0 l/m 2 min 0 min 856 W/m 9,7 km/h (2 Bft) 95,74 %
01.06.2020 11:20 25,5 C 30,0 C 25,6 C 49 % 1022,5 hPa 0,0 l/m 2 min 0 min 852 W/m 9,7 km/h (2 Bft) 100,00 %
01.06.2020 11:18 25,4 C 30,6 C 26,1 C 51 % 1022,5 hPa 0,0 l/m 2 min 0 min 847 W/m 9,7 km/h (2 Bft) 97,87 %
01.06.2020 11:16 25,4 C 30,6 C 26,7 C 52 % 1022,6 hPa 0,0 l/m 2 min 0 min 843 W/m 6,4 km/h (2 Bft) 97,87 %
01.06.2020 11:14 25,3 C 30,6 C 27,2 C 52 % 1022,5 hPa 0,0 l/m 2 min 0 min 838 W/m 6,4 km/h (2 Bft) 100,00 %
01.06.2020 11:12 25,2 C 30,0 C 28,3 C 50 % 1022,5 hPa 0,0 l/m 2 min 0 min 836 W/m 12,9 km/h (3 Bft) 97,87 %
01.06.2020 11:10 25,2 C 30,0 C 28,3 C 52 % 1022,5 hPa 0,0 l/m 2 min 0 min 831 W/m 6,4 km/h (2 Bft) 100,00 %
01.06.2020 11:08 25,2 C 30,0 C 28,9 C 52 % 1022,5 hPa 0,0 l/m 2 min 0 min 828 W/m 9,7 km/h (2 Bft) 97,87 %
01.06.2020 11:06 25,2 C 30,0 C 30,6 C 53 % 1022,6 hPa 0,0 l/m 2 min 0 min 824 W/m 12,9 km/h (3 Bft) 97,87 %
01.06.2020 11:04 25,1 C 29,4 C 31,1 C 52 % 1022,6 hPa 0,0 l/m 2 min 0 min 817 W/m 12,9 km/h (3 Bft) 100,00 %
01.06.2020 11:02 25,1 C 30,0 C 30,6 C 52 % 1022,5 hPa 0,0 l/m 2 min 0 min 816 W/m 6,4 km/h (2 Bft) 100,00 %
01.06.2020 11:00 24,9 C 30,0 C 30,0 C 53 % 1022,6 hPa 0,0 l/m 2 min 0 min 811 W/m 3,2 km/h (1 Bft) 100,00 %
01.06.2020 10:58 24,9 C 29,4 C 30,6 C 51 % 1022,6 hPa 0,0 l/m 2 min 0 min 806 W/m 6,4 km/h (2 Bft) 97,83 %
01.06.2020 10:56 24,8 C 29,4 C 31,7 C 52 % 1022,6 hPa 0,0 l/m 2 min 0 min 803 W/m 3,2 km/h (1 Bft) 100,00 %
01.06.2020 10:54 24,8 C 29,4 C 31,1 C 54 % 1022,6 hPa 0,0 l/m 2 min 0 min 798 W/m 3,2 km/h (1 Bft) 100,00 %
01.06.2020 10:52 24,7 C 29,4 C 31,7 C 53 % 1022,6 hPa 0,0 l/m 2 min 0 min 793 W/m 6,4 km/h (2 Bft) 97,87 %
01.06.2020 10:50 24,6 C 29,4 C 31,7 C 53 % 1022,6 hPa 0,0 l/m 2 min 0 min 790 W/m 12,9 km/h (3 Bft) 97,87 %
01.06.2020 10:48 24,5 C 29,4 C 32,2 C 54 % 1022,7 hPa 0,0 l/m 2 min 0 min 788 W/m 6,4 km/h (2 Bft) 97,87 %
01.06.2020 10:46 24,4 C 29,4 C 32,2 C 54 % 1022,6 hPa 0,0 l/m 2 min 0 min 780 W/m 6,4 km/h (2 Bft) 97,83 %
01.06.2020 10:44 24,3 C 28,9 C 31,7 C 53 % 1022,6 hPa 0,0 l/m 2 min 0 min 774 W/m 12,9 km/h (3 Bft) 95,74 %
01.06.2020 10:42 24,3 C 29,4 C 32,2 C 54 % 1022,6 hPa 0,0 l/m 2 min 0 min 768 W/m 6,4 km/h (2 Bft) 97,87 %
01.06.2020 10:40 24,2 C 29,4 C 32,8 C 54 % 1022,7 hPa 0,0 l/m 2 min 0 min 768 W/m 6,4 km/h (2 Bft) 95,74 %
01.06.2020 10:38 24,1 C 28,9 C 32,2 C 54 % 1022,7 hPa 0,0 l/m 2 min 0 min 761 W/m 3,2 km/h (1 Bft) 95,74 %
01.06.2020 10:36 24,0 C 28,9 C 32,8 C 56 % 1022,7 hPa 0,0 l/m 2 min 0 min 758 W/m 6,4 km/h (2 Bft) 93,62 %
01.06.2020 10:34 23,9 C 28,9 C 32,2 C 54 % 1022,7 hPa 0,0 l/m 2 min 0 min 753 W/m 9,7 km/h (2 Bft) 95,65 %
01.06.2020 10:32 23,8 C 28,9 C 32,2 C 55 % 1022,7 hPa 0,0 l/m 2 min 0 min 750 W/m 6,4 km/h (2 Bft) 95,74 %
01.06.2020 10:30 23,8 C 28,3 C 32,2 C 57 % 1022,7 hPa 0,0 l/m 2 min 0 min 746 W/m 9,7 km/h (2 Bft) 97,87 %
01.06.2020 10:28 23,7 C 28,3 C 32,2 C 55 % 1022,8 hPa 0,0 l/m 2 min 0 min 738 W/m 6,4 km/h (2 Bft) 91,49 %
01.06.2020 10:26 23,6 C 28,9 C 31,7 C 57 % 1022,7 hPa 0,0 l/m 2 min 0 min 707 W/m 3,2 km/h (1 Bft) 95,74 %
01.06.2020 10:24 23,6 C 28,3 C 31,7 C 55 % 1022,7 hPa 0,0 l/m 2 min 0 min 731 W/m 0,0 km/h (0 Bft) 93,62 %
01.06.2020 10:22 23,5 C 28,3 C 31,7 C 56 % 1022,8 hPa 0,0 l/m 2 min 0 min 723 W/m 3,2 km/h (1 Bft) 93,48 %
01.06.2020 10:20 23,4 C 27,8 C 31,1 C 55 % 1022,8 hPa 0,0 l/m 2 min 0 min 718 W/m 6,4 km/h (2 Bft) 95,74 %
01.06.2020 10:18 23,4 C 28,3 C 31,1 C 55 % 1022,8 hPa 0,0 l/m 2 min 0 min 714 W/m 6,4 km/h (2 Bft) 93,62 %
01.06.2020 10:16 23,3 C 28,3 C 30,6 C 57 % 1022,8 hPa 0,0 l/m 2 min 0 min 710 W/m 6,4 km/h (2 Bft) 95,74 %
01.06.2020 10:14 23,2 C 28,3 C 31,1 C 58 % 1022,8 hPa 0,0 l/m 2 min 0 min 706 W/m 3,2 km/h (1 Bft) 93,62 %
01.06.2020 10:12 23,1 C 28,9 C 31,7 C 61 % 1022,8 hPa 0,0 l/m 2 min 0 min 701 W/m 3,2 km/h (1 Bft) 95,65 %
01.06.2020 10:10 23,0 C 28,3 C 31,7 C 58 % 1022,8 hPa 0,0 l/m 2 min 0 min 695 W/m 3,2 km/h (1 Bft) 95,74 %
01.06.2020 10:08 22,9 C 28,3 C 31,7 C 59 % 1022,7 hPa 0,0 l/m 2 min 0 min 688 W/m 0,0 km/h (0 Bft) 95,74 %
01.06.2020 10:06 22,8 C 27,8 C 31,1 C 59 % 1022,8 hPa 0,0 l/m 2 min 0 min 683 W/m 6,4 km/h (2 Bft) 95,74 %
01.06.2020 10:04 22,7 C 27,8 C 30,6 C 59 % 1022,8 hPa 0,0 l/m 2 min 0 min 679 W/m 3,2 km/h (1 Bft) 95,74 %
01.06.2020 10:02 22,6 C 27,8 C 30,6 C 61 % 1022,8 hPa 0,0 l/m 2 min 0 min 675 W/m 6,4 km/h (2 Bft) 93,62 %
01.06.2020 10:00 22,5 C 27,2 C 31,1 C 61 % 1022,8 hPa 0,0 l/m 2 min 0 min 672 W/m 3,2 km/h (1 Bft) 91,30 %
01.06.2020 09:58 22,4 C 26,7 C 30,6 C 59 % 1022,9 hPa 0,0 l/m 2 min 0 min 667 W/m 9,7 km/h (2 Bft) 95,74 %
01.06.2020 09:56 22,3 C 27,2 C 30,6 C 60 % 1022,8 hPa 0,0 l/m 2 min 0 min 659 W/m 3,2 km/h (1 Bft) 97,87 %
01.06.2020 09:54 22,3 C 27,2 C 31,1 C 62 % 1022,9 hPa 0,0 l/m 2 min 0 min 653 W/m 3,2 km/h (1 Bft) 100,00 %
01.06.2020 09:52 22,1 C 27,2 C 30,6 C 62 % 1022,9 hPa 0,0 l/m 2 min 0 min 645 W/m 3,2 km/h (1 Bft) 100,00 %
01.06.2020 09:50 22,0 C 26,7 C 30,6 C 61 % 1022,9 hPa 0,0 l/m 2 min 0 min 639 W/m 3,2 km/h (1 Bft) 100,00 %
01.06.2020 09:48 21,9 C 26,7 C 30,6 C 62 % 1022,9 hPa 0,0 l/m 2 min 0 min 634 W/m 3,2 km/h (1 Bft) 97,83 %
01.06.2020 09:46 21,8 C 26,7 C 30,0 C 62 % 1022,9 hPa 0,0 l/m 2 min 0 min 628 W/m 6,4 km/h (2 Bft) 100,00 %
01.06.2020 09:44 21,7 C 26,7 C 30,0 C 63 % 1022,9 hPa 0,0 l/m 2 min 0 min 622 W/m 6,4 km/h (2 Bft) 100,00 %
01.06.2020 09:42 21,6 C 27,2 C 30,0 C 63 % 1022,8 hPa 0,0 l/m 2 min 0 min 616 W/m 0,0 km/h (0 Bft) 97,87 %
01.06.2020 09:40 21,4 C 26,7 C 30,0 C 64 % 1022,8 hPa 0,0 l/m 2 min 0 min 610 W/m 3,2 km/h (1 Bft) 100,00 %
01.06.2020 09:38 21,3 C 26,7 C 29,4 C 63 % 1022,8 hPa 0,0 l/m 2 min 0 min 605 W/m 3,2 km/h (1 Bft) 100,00 %
01.06.2020 09:36 21,3 C 26,7 C 29,4 C 64 % 1022,9 hPa 0,0 l/m 2 min 0 min 598 W/m 3,2 km/h (1 Bft) 97,83 %
01.06.2020 09:34 21,1 C 26,1 C 30,0 C 65 % 1022,8 hPa 0,0 l/m 2 min 0 min 592 W/m 0,0 km/h (0 Bft) 100,00 %
01.06.2020 09:32 21,1 C 25,6 C 29,4 C 63 % 1022,8 hPa 0,0 l/m 2 min 0 min 586 W/m 3,2 km/h (1 Bft) 100,00 %
01.06.2020 09:30 20,9 C 26,1 C 29,4 C 65 % 1022,9 hPa 0,0 l/m 2 min 0 min 580 W/m 3,2 km/h (1 Bft) 100,00 %
01.06.2020 09:28 20,8 C 26,1 C 28,9 C 67 % 1022,8 hPa 0,0 l/m 2 min 0 min 574 W/m 6,4 km/h (2 Bft) 100,00 %
01.06.2020 09:26 20,7 C 25,6 C 28,9 C 67 % 1022,8 hPa 0,0 l/m 2 min 0 min 568 W/m 3,2 km/h (1 Bft) 100,00 %
01.06.2020 09:24 20,6 C 25,0 C 28,3 C 66 % 1022,9 hPa 0,0 l/m 2 min 0 min 562 W/m 6,4 km/h (2 Bft) 100,00 %
01.06.2020 09:22 20,4 C 25,0 C 28,3 C 66 % 1022,9 hPa 0,0 l/m 2 min 0 min 557 W/m 3,2 km/h (1 Bft) 100,00 %
01.06.2020 09:20 20,3 C 25,0 C 28,3 C 66 % 1022,9 hPa 0,0 l/m 2 min 0 min 552 W/m 3,2 km/h (1 Bft) 100,00 %
01.06.2020 09:18 20,2 C 25,0 C 28,3 C 66 % 1022,9 hPa 0,0 l/m 2 min 0 min 546 W/m 3,2 km/h (1 Bft) 100,00 %
01.06.2020 09:16 20,1 C 25,6 C 27,8 C 67 % 1022,9 hPa 0,0 l/m 2 min 0 min 535 W/m 9,7 km/h (2 Bft) 100,00 %
01.06.2020 09:14 19,9 C 25,0 C 27,8 C 67 % 1022,9 hPa 0,0 l/m 2 min 0 min 527 W/m 3,2 km/h (1 Bft) 100,00 %
01.06.2020 09:12 19,8 C 24,4 C 27,8 C 67 % 1022,9 hPa 0,0 l/m 2 min 0 min 509 W/m 0,0 km/h (0 Bft) 100,00 %
01.06.2020 09:10 19,7 C 25,0 C 27,2 C 69 % 1022,9 hPa 0,0 l/m 2 min 0 min 488 W/m 3,2 km/h (1 Bft) 100,00 %
01.06.2020 09:08 19,6 C 24,4 C 26,7 C 69 % 1022,9 hPa 0,0 l/m 2 min 0 min 456 W/m 6,4 km/h (2 Bft) 100,00 %
01.06.2020 09:06 19,4 C 23,9 C 26,1 C 68 % 1022,9 hPa 0,0 l/m 2 min 0 min 417 W/m 6,4 km/h (2 Bft) 100,00 %
01.06.2020 09:04 19,3 C 24,4 C 26,7 C 70 % 1022,9 hPa 0,0 l/m 2 min 0 min 376 W/m 3,2 km/h (1 Bft) 100,00 %
01.06.2020 09:02 19,1 C 25,0 C 26,1 C 71 % 1022,9 hPa 0,0 l/m 2 min 0 min 334 W/m 3,2 km/h (1 Bft) 97,83 %
01.06.2020 09:00 18,9 C 24,4 C 26,1 C 70 % 1022,9 hPa 0,0 l/m 2 min 0 min 284 W/m 6,4 km/h (2 Bft) 100,00 %
01.06.2020 08:58 18,8 C 23,9 C 25,6 C 71 % 1022,9 hPa 0,0 l/m 0 min 0 min 239 W/m 6,4 km/h (2 Bft) 100,00 %
01.06.2020 08:56 18,6 C 23,9 C 25,6 C 71 % 1022,9 hPa 0,0 l/m 0 min 0 min 196 W/m 3,2 km/h (1 Bft) 97,87 %
01.06.2020 08:54 18,5 C 23,9 C 25,6 C 71 % 1022,9 hPa 0,0 l/m 0 min 0 min 158 W/m 6,4 km/h (2 Bft) 97,87 %
01.06.2020 08:52 18,3 C 23,9 C 25,6 C 73 % 1022,9 hPa 0,0 l/m 0 min 0 min 127 W/m 6,4 km/h (2 Bft) 97,87 %
01.06.2020 08:50 18,2 C 23,9 C 25,6 C 74 % 1022,9 hPa 0,0 l/m 0 min 0 min 100 W/m 3,2 km/h (1 Bft) 100,00 %
01.06.2020 08:48 17,9 C 23,9 C 25,0 C 75 % 1023,0 hPa 0,0 l/m 0 min 0 min 80 W/m 3,2 km/h (1 Bft) 100,00 %
01.06.2020 08:46 17,7 C 23,9 C 24,4 C 75 % 1022,9 hPa 0,0 l/m 0 min 0 min 68 W/m 3,2 km/h (1 Bft) 100,00 %
01.06.2020 08:44 17,5 C 23,9 C 24,4 C 75 % 1022,9 hPa 0,0 l/m 0 min 0 min 60 W/m 3,2 km/h (1 Bft) 100,00 %
01.06.2020 08:42 17,3 C 23,3 C 23,9 C 75 % 1022,9 hPa 0,0 l/m 0 min 0 min 56 W/m 9,7 km/h (2 Bft) 100,00 %
01.06.2020 08:40 17,1 C 23,3 C 23,3 C 77 % 1022,9 hPa 0,0 l/m 0 min 0 min 56 W/m 3,2 km/h (1 Bft) 100,00 %
01.06.2020 08:38 16,9 C 22,8 C 22,8 C 78 % 1022,9 hPa 0,0 l/m 0 min 0 min 55 W/m 3,2 km/h (1 Bft) 100,00 %
01.06.2020 08:36 16,7 C 22,8 C 21,7 C 78 % 1022,9 hPa 0,0 l/m 0 min 0 min 54 W/m 0,0 km/h (0 Bft) 100,00 %
01.06.2020 08:34 16,4 C 22,2 C 20,0 C 78 % 1022,9 hPa 0,0 l/m 0 min 0 min 54 W/m 6,4 km/h (2 Bft) 100,00 %
01.06.2020 08:32 16,2 C 22,2 C 18,9 C 80 % 1022,9 hPa 0,0 l/m 0 min 0 min 54 W/m 3,2 km/h (1 Bft) 100,00 %
01.06.2020 08:30 16,0 C 22,2 C 16,7 C 81 % 1022,9 hPa 0,0 l/m 0 min 0 min 53 W/m 6,4 km/h (2 Bft) 97,87 %
01.06.2020 08:28 15,8 C 22,8 C 15,0 C 82 % 1023,0 hPa 0,0 l/m 0 min 0 min 53 W/m 0,0 km/h (0 Bft) 100,00 %
01.06.2020 08:26 15,6 C 22,2 C 13,9 C 83 % 1022,9 hPa 0,0 l/m 0 min 0 min 53 W/m 3,2 km/h (1 Bft) 100,00 %
01.06.2020 08:24 15,2 C 22,2 C 13,9 C 84 % 1022,9 hPa 0,0 l/m 0 min 0 min 52 W/m 0,0 km/h (0 Bft) 100,00 %
01.06.2020 08:22 14,9 C 22,8 C 13,3 C 85 % 1022,9 hPa 0,0 l/m 0 min 0 min 51 W/m 3,2 km/h (1 Bft) 100,00 %
01.06.2020 08:20 14,7 C 22,8 C 13,3 C 85 % 1022,9 hPa 0,0 l/m 0 min 0 min 51 W/m 0,0 km/h (0 Bft) 97,87 %
01.06.2020 08:18 14,4 C 22,8 C 13,3 C 86 % 1022,9 hPa 0,0 l/m 0 min 0 min 50 W/m 0,0 km/h (0 Bft) 100,00 %
01.06.2020 08:16 14,3 C 22,2 C 12,8 C 86 % 1022,9 hPa 0,0 l/m 0 min 0 min 49 W/m 0,0 km/h (0 Bft) 95,65 %
01.06.2020 08:14 14,0 C 21,7 C 12,8 C 86 % 1022,9 hPa 0,0 l/m 0 min 0 min 49 W/m 3,2 km/h (1 Bft) 95,74 %
01.06.2020 08:12 13,8 C 21,7 C 12,8 C 86 % 1022,9 hPa 0,0 l/m 0 min 0 min 49 W/m 3,2 km/h (1 Bft) 91,49 %
01.06.2020 08:10 13,6 C 21,7 C 12,8 C 86 % 1022,9 hPa 0,0 l/m 0 min 0 min 47 W/m 0,0 km/h (0 Bft) 95,74 %
01.06.2020 08:08 13,5 C 20,6 C 12,8 C 86 % 1022,8 hPa 0,0 l/m 0 min 0 min 47 W/m 3,2 km/h (1 Bft) 93,62 %
01.06.2020 08:06 13,4 C 20,6 C 12,8 C 85 % 1022,8 hPa 0,0 l/m 0 min 0 min 47 W/m 3,2 km/h (1 Bft) 95,74 %
01.06.2020 08:04 13,3 C 19,4 C 12,2 C 86 % 1022,9 hPa 0,0 l/m 0 min 0 min 46 W/m 0,0 km/h (0 Bft) 95,74 %
01.06.2020 08:02 13,2 C 18,3 C 12,2 C 86 % 1022,9 hPa 0,0 l/m 0 min 0 min 46 W/m 3,2 km/h (1 Bft) 93,48 %
01.06.2020 08:00 13,1 C 16,7 C 12,2 C 86 % 1022,8 hPa 0,0 l/m 0 min 0 min 46 W/m 6,4 km/h (2 Bft) 93,62 %
01.06.2020 07:58 13,1 C 14,4 C 12,2 C 86 % 1022,8 hPa 0,0 l/m 0 min 0 min 46 W/m 3,2 km/h (1 Bft) 91,49 %
01.06.2020 07:56 13,0 C 13,9 C 12,2 C 86 % 1022,8 hPa 0,0 l/m 0 min 0 min 44 W/m 3,2 km/h (1 Bft) 93,62 %
01.06.2020 07:54 12,9 C 13,9 C 12,2 C 86 % 1022,8 hPa 0,0 l/m 0 min 0 min 44 W/m 0,0 km/h (0 Bft) 93,62 %
01.06.2020 07:52 12,9 C 13,9 C 12,2 C 86 % 1022,8 hPa 0,0 l/m 0 min 0 min 44 W/m 3,2 km/h (1 Bft) 93,48 %
01.06.2020 07:50 12,8 C 13,9 C 12,2 C 87 % 1022,8 hPa 0,0 l/m 0 min 0 min 44 W/m 6,4 km/h (2 Bft) 93,62 %
01.06.2020 07:48 12,7 C 13,9 C 12,2 C 87 % 1022,8 hPa 0,0 l/m 0 min 0 min 42 W/m 6,4 km/h (2 Bft) 93,62 %
01.06.2020 07:46 12,7 C 13,9 C 12,2 C 87 % 1022,8 hPa 0,0 l/m 0 min 0 min 42 W/m 3,2 km/h (1 Bft) 93,62 %
01.06.2020 07:44 12,6 C 13,9 C 12,2 C 87 % 1022,8 hPa 0,0 l/m 0 min 0 min 42 W/m 6,4 km/h (2 Bft) 91,49 %
01.06.2020 07:42 12,6 C 13,3 C 12,2 C 87 % 1022,8 hPa 0,0 l/m 0 min 0 min 42 W/m 3,2 km/h (1 Bft) 85,11 %
01.06.2020 07:40 12,5 C 13,3 C 12,2 C 87 % 1022,7 hPa 0,0 l/m 0 min 0 min 41 W/m 6,4 km/h (2 Bft) 95,65 %
01.06.2020 07:38 12,4 C 13,3 C 11,7 C 87 % 1022,7 hPa 0,0 l/m 0 min 0 min 40 W/m 6,4 km/h (2 Bft) 97,87 %
01.06.2020 07:36 12,3 C 13,3 C 11,7 C 87 % 1022,7 hPa 0,0 l/m 0 min 0 min 40 W/m 0,0 km/h (0 Bft) 95,83 %
01.06.2020 07:34 12,3 C 13,3 C 11,7 C 88 % 1022,7 hPa 0,0 l/m 0 min 0 min 40 W/m 3,2 km/h (1 Bft) 95,74 %
01.06.2020 07:32 12,2 C 12,8 C 11,7 C 88 % 1022,7 hPa 0,0 l/m 0 min 0 min 39 W/m 0,0 km/h (0 Bft) 95,83 %
01.06.2020 07:30 12,2 C 12,8 C 11,7 C 88 % 1022,7 hPa 0,0 l/m 0 min 0 min 39 W/m 0,0 km/h (0 Bft) 95,74 %
01.06.2020 07:28 12,2 C 12,8 C 11,7 C 87 % 1022,7 hPa 0,0 l/m 0 min 0 min 39 W/m 3,2 km/h (1 Bft) 95,65 %
01.06.2020 07:26 12,1 C 12,8 C 11,7 C 88 % 1022,7 hPa 0,0 l/m 0 min 0 min 37 W/m 0,0 km/h (0 Bft) 95,74 %
01.06.2020 07:24 12,1 C 12,8 C 11,7 C 88 % 1022,7 hPa 0,0 l/m 0 min 0 min 37 W/m 3,2 km/h (1 Bft) 95,74 %
01.06.2020 07:22 12,1 C 12,8 C 11,1 C 88 % 1022,7 hPa 0,0 l/m 0 min 0 min 37 W/m 3,2 km/h (1 Bft) 95,74 %
01.06.2020 07:20 12,0 C 12,8 C 11,1 C 88 % 1022,7 hPa 0,0 l/m 0 min 0 min 36 W/m 3,2 km/h (1 Bft) 97,87 %
01.06.2020 07:18 12,0 C 12,2 C 11,1 C 88 % 1022,7 hPa 0,0 l/m 0 min 0 min 35 W/m 3,2 km/h (1 Bft) 95,65 %
01.06.2020 07:16 11,9 C 12,2 C 11,1 C 88 % 1022,7 hPa 0,0 l/m 0 min 0 min 33 W/m 6,4 km/h (2 Bft) 97,87 %
01.06.2020 07:14 11,9 C 12,2 C 11,1 C 88 % 1022,7 hPa 0,0 l/m 0 min 0 min 33 W/m 0,0 km/h (0 Bft) 95,74 %
01.06.2020 07:12 11,9 C 12,2 C 11,1 C 88 % 1022,7 hPa 0,0 l/m 0 min 0 min 32 W/m 3,2 km/h (1 Bft) 95,74 %
01.06.2020 07:10 11,8 C 12,2 C 11,1 C 88 % 1022,7 hPa 0,0 l/m 0 min 0 min 32 W/m 0,0 km/h (0 Bft) 97,87 %
01.06.2020 07:08 11,8 C 12,2 C 11,1 C 88 % 1022,6 hPa 0,0 l/m 0 min 0 min 31 W/m 0,0 km/h (0 Bft) 97,87 %
01.06.2020 07:06 11,8 C 12,2 C 11,1 C 88 % 1022,6 hPa 0,0 l/m 0 min 0 min 30 W/m 0,0 km/h (0 Bft) 100,00 %
01.06.2020 07:04 11,8 C 12,2 C 11,1 C 87 % 1022,7 hPa 0,0 l/m 0 min 0 min 30 W/m 0,0 km/h (0 Bft) 100,00 %
01.06.2020 07:02 11,7 C 12,2 C 11,1 C 87 % 1022,6 hPa 0,0 l/m 0 min 0 min 30 W/m 0,0 km/h (0 Bft) 95,74 %
01.06.2020 07:00 11,7 C 12,2 C 10,6 C 87 % 1022,6 hPa 0,0 l/m 0 min 0 min 28 W/m 0,0 km/h (0 Bft) 100,00 %
01.06.2020 06:58 11,7 C 11,7 C 10,6 C 87 % 1022,7 hPa 0,0 l/m 0 min 0 min 28 W/m 0,0 km/h (0 Bft) 100,00 %
01.06.2020 06:56 11,7 C 11,7 C 10,6 C 87 % 1022,7 hPa 0,0 l/m 0 min 0 min 28 W/m 0,0 km/h (0 Bft) 100,00 %
01.06.2020 06:54 11,6 C 11,7 C 10,6 C 87 % 1022,7 hPa 0,0 l/m 0 min 0 min 28 W/m 0,0 km/h (0 Bft) 100,00 %
01.06.2020 06:52 11,6 C 11,7 C 10,6 C 87 % 1022,7 hPa 0,0 l/m 0 min 0 min 27 W/m 0,0 km/h (0 Bft) 100,00 %
01.06.2020 06:50 11,6 C 11,7 C 10,6 C 87 % 1022,7 hPa 0,0 l/m 0 min 0 min 26 W/m 3,2 km/h (1 Bft) 100,00 %
01.06.2020 06:48 11,6 C 11,7 C 10,6 C 87 % 1022,7 hPa 0,0 l/m 0 min 0 min 26 W/m 0,0 km/h (0 Bft) 97,87 %
01.06.2020 06:46 11,6 C 11,7 C 10,6 C 87 % 1022,7 hPa 0,0 l/m 0 min 0 min 25 W/m 0,0 km/h (0 Bft) 97,87 %
01.06.2020 06:44 11,5 C 11,7 C 10,6 C 87 % 1022,6 hPa 0,0 l/m 0 min 0 min 25 W/m 0,0 km/h (0 Bft) 100,00 %
01.06.2020 06:42 11,5 C 11,7 C 10,6 C 87 % 1022,6 hPa 0,0 l/m 0 min 0 min 25 W/m 3,2 km/h (1 Bft) 100,00 %
01.06.2020 06:40 11,5 C 11,7 C 10,6 C 87 % 1022,6 hPa 0,0 l/m 0 min 0 min 23 W/m 0,0 km/h (0 Bft) 100,00 %
01.06.2020 06:38 11,4 C 11,7 C 10,6 C 87 % 1022,6 hPa 0,0 l/m 0 min 0 min 22 W/m 0,0 km/h (0 Bft) 100,00 %
01.06.2020 06:36 11,4 C 11,7 C 10,6 C 87 % 1022,6 hPa 0,0 l/m 0 min 0 min 21 W/m 0,0 km/h (0 Bft) 100,00 %
01.06.2020 06:34 11,4 C 11,7 C 10,6 C 87 % 1022,6 hPa 0,0 l/m 0 min 0 min 21 W/m 0,0 km/h (0 Bft) 100,00 %
01.06.2020 06:32 11,4 C 11,1 C 10,6 C 87 % 1022,6 hPa 0,0 l/m 0 min 0 min 20 W/m 0,0 km/h (0 Bft) 100,00 %
01.06.2020 06:30 11,3 C 11,1 C 10,6 C 87 % 1022,6 hPa 0,0 l/m 0 min 0 min 19 W/m 0,0 km/h (0 Bft) 100,00 %
01.06.2020 06:28 11,3 C 11,1 C 10,6 C 87 % 1022,6 hPa 0,0 l/m 0 min 0 min 19 W/m 0,0 km/h (0 Bft) 100,00 %
01.06.2020 06:26 11,3 C 11,1 C 10,6 C 87 % 1022,6 hPa 0,0 l/m 0 min 0 min 19 W/m 0,0 km/h (0 Bft) 100,00 %
01.06.2020 06:24 11,3 C 11,1 C 10,6 C 87 % 1022,5 hPa 0,0 l/m 0 min 0 min 19 W/m 0,0 km/h (0 Bft) 100,00 %
01.06.2020 06:22 11,3 C 11,1 C 10,6 C 87 % 1022,6 hPa 0,0 l/m 0 min 0 min 18 W/m 3,2 km/h (1 Bft) 95,74 %
01.06.2020 06:20 11,3 C 11,1 C 10,0 C 86 % 1022,6 hPa 0,0 l/m 0 min 0 min 18 W/m 6,4 km/h (2 Bft) 100,00 %
01.06.2020 06:18 11,2 C 11,1 C 10,0 C 86 % 1022,6 hPa 0,0 l/m 0 min 0 min 18 W/m 0,0 km/h (0 Bft) 100,00 %
01.06.2020 06:16 11,2 C 11,1 C 10,0 C 86 % 1022,6 hPa 0,0 l/m 0 min 0 min 18 W/m 0,0 km/h (0 Bft) 100,00 %
01.06.2020 06:14 11,2 C 11,1 C 10,0 C 86 % 1022,6 hPa 0,0 l/m 0 min 0 min 18 W/m 0,0 km/h (0 Bft) 100,00 %
01.06.2020 06:12 11,2 C 11,1 C 10,0 C 86 % 1022,5 hPa 0,0 l/m 0 min 0 min 16 W/m 0,0 km/h (0 Bft) 100,00 %
01.06.2020 06:10 11,2 C 11,1 C 10,0 C 86 % 1022,6 hPa 0,0 l/m 0 min 0 min 16 W/m 0,0 km/h (0 Bft) 100,00 %
01.06.2020 06:08 11,2 C 11,1 C 10,0 C 86 % 1022,6 hPa 0,0 l/m 0 min 0 min 16 W/m 0,0 km/h (0 Bft) 100,00 %
01.06.2020 06:04 11,2 C 10,6 C 10,0 C 86 % 1022,6 hPa 0,0 l/m 0 min 0 min 14 W/m 0,0 km/h (0 Bft) 100,00 %
01.06.2020 06:02 11,2 C 10,6 C 10,0 C 86 % 1022,5 hPa 0,0 l/m 0 min 0 min 14 W/m 0,0 km/h (0 Bft) 100,00 %
01.06.2020 06:00 11,2 C 10,6 C 10,0 C 85 % 1022,6 hPa 0,0 l/m 0 min 0 min 14 W/m 0,0 km/h (0 Bft) 100,00 %
01.06.2020 05:58 11,1 C 10,6 C 10,0 C 85 % 1022,5 hPa 0,0 l/m 0 min 0 min 13 W/m 0,0 km/h (0 Bft) 93,62 %
01.06.2020 05:56 11,1 C 10,6 C 10,0 C 85 % 1022,5 hPa 0,0 l/m 0 min 0 min 12 W/m 0,0 km/h (0 Bft) 100,00 %
01.06.2020 05:54 11,2 C 10,0 C 10,0 C 85 % 1022,5 hPa 0,0 l/m 0 min 0 min 12 W/m 0,0 km/h (0 Bft) 100,00 %
01.06.2020 05:52 11,2 C 10,0 C 9,4 C 85 % 1022,5 hPa 0,0 l/m 0 min 0 min 12 W/m 0,0 km/h (0 Bft) 56,52 %
01.06.2020 05:50 11,2 C 10,0 C 9,4 C 85 % 1022,5 hPa 0,0 l/m 0 min 0 min 12 W/m 0,0 km/h (0 Bft) 97,83 %
01.06.2020 05:48 11,2 C 10,0 C 9,4 C 85 % 1022,5 hPa 0,0 l/m 0 min 0 min 11 W/m 0,0 km/h (0 Bft) 95,74 %
01.06.2020 05:46 11,2 C 10,0 C 9,4 C 85 % 1022,5 hPa 0,0 l/m 0 min 0 min 11 W/m 0,0 km/h (0 Bft) 97,87 %
01.06.2020 05:44 11,2 C 10,0 C 10,0 C 85 % 1022,4 hPa 0,0 l/m 0 min 0 min 10 W/m 0,0 km/h (0 Bft) 93,62 %
01.06.2020 05:42 11,2 C 10,0 C 10,0 C 85 % 1022,5 hPa 0,0 l/m 0 min 0 min 9 W/m 0,0 km/h (0 Bft) 95,74 %
01.06.2020 05:40 11,2 C 10,0 C 10,0 C 85 % 1022,5 hPa 0,0 l/m 0 min 0 min 9 W/m 0,0 km/h (0 Bft) 95,65 %
01.06.2020 05:38 11,2 C 10,6 C 10,0 C 85 % 1022,5 hPa 0,0 l/m 0 min 0 min 7 W/m 0,0 km/h (0 Bft) 95,74 %
01.06.2020 05:36 11,2 C 10,6 C 10,0 C 85 % 1022,5 hPa 0,0 l/m 0 min 0 min 7 W/m 0,0 km/h (0 Bft) 95,74 %
01.06.2020 05:34 11,2 C 10,6 C 10,0 C 85 % 1022,5 hPa 0,0 l/m 0 min 0 min 6 W/m 0,0 km/h (0 Bft) 93,62 %
01.06.2020 05:32 11,2 C 10,6 C 9,4 C 85 % 1022,5 hPa 0,0 l/m 0 min 0 min 5 W/m 0,0 km/h (0 Bft) 93,62 %
01.06.2020 05:30 11,2 C 10,0 C 9,4 C 85 % 1022,4 hPa 0,0 l/m 0 min 0 min 5 W/m 0,0 km/h (0 Bft) 95,74 %
01.06.2020 05:28 11,2 C 10,0 C 9,4 C 84 % 1022,4 hPa 0,0 l/m 0 min 0 min 5 W/m 0,0 km/h (0 Bft) 95,65 %
01.06.2020 05:26 11,2 C 10,0 C 9,4 C 85 % 1022,4 hPa 0,0 l/m 0 min 0 min 5 W/m 0,0 km/h (0 Bft) 93,62 %
01.06.2020 05:24 11,2 C 10,0 C 9,4 C 84 % 1022,4 hPa 0,0 l/m 0 min 0 min 4 W/m 0,0 km/h (0 Bft) 95,74 %
01.06.2020 05:22 11,2 C 10,0 C 9,4 C 84 % 1022,4 hPa 0,0 l/m 0 min 0 min 0 W/m 0,0 km/h (0 Bft) 93,62 %
01.06.2020 05:20 11,2 C 10,0 C 9,4 C 84 % 1022,4 hPa 0,0 l/m 0 min 0 min 0 W/m 0,0 km/h (0 Bft) 95,74 %
01.06.2020 05:18 11,2 C 10,6 C 9,4 C 84 % 1022,4 hPa 0,0 l/m 0 min 0 min 0 W/m 0,0 km/h (0 Bft) 97,87 %
01.06.2020 05:16 11,2 C 10,6 C 9,4 C 84 % 1022,4 hPa 0,0 l/m 0 min 0 min 0 W/m 0,0 km/h (0 Bft) 97,83 %
01.06.2020 05:14 11,2 C 10,6 C 9,4 C 84 % 1022,4 hPa 0,0 l/m 0 min 0 min 0 W/m 0,0 km/h (0 Bft) 95,74 %
01.06.2020 05:12 11,2 C 10,6 C 9,4 C 84 % 1022,3 hPa 0,0 l/m 0 min 0 min 0 W/m 0,0 km/h (0 Bft) 97,87 %
01.06.2020 05:10 11,2 C 10,0 C 9,4 C 84 % 1022,4 hPa 0,0 l/m 0 min 0 min 0 W/m 0,0 km/h (0 Bft) 97,87 %
01.06.2020 05:08 11,2 C 10,6 C 9,4 C 84 % 1022,4 hPa 0,0 l/m 0 min 0 min 0 W/m 0,0 km/h (0 Bft) 95,74 %
01.06.2020 05:06 11,2 C 10,6 C 9,4 C 84 % 1022,4 hPa 0,0 l/m 0 min 0 min 0 W/m 0,0 km/h (0 Bft) 97,83 %
01.06.2020 05:04 11,2 C 10,6 C 9,4 C 83 % 1022,4 hPa 0,0 l/m 0 min 0 min 0 W/m 0,0 km/h (0 Bft) 95,74 %
01.06.2020 05:02 11,3 C 10,0 C 9,4 C 83 % 1022,4 hPa 0,0 l/m 0 min 0 min 0 W/m 0,0 km/h (0 Bft) 95,74 %
01.06.2020 05:00 11,3 C 10,6 C 9,4 C 83 % 1022,4 hPa 0,0 l/m 0 min 0 min 0 W/m 0,0 km/h (0 Bft) 97,87 %
01.06.2020 04:58 11,3 C 10,0 C 9,4 C 83 % 1022,4 hPa 0,0 l/m 0 min 0 min 0 W/m 0,0 km/h (0 Bft) 97,87 %
01.06.2020 04:56 11,3 C 10,0 C 9,4 C 83 % 1022,4 hPa 0,0 l/m 0 min 0 min 0 W/m 0,0 km/h (0 Bft) 97,87 %
01.06.2020 04:54 11,3 C 10,0 C 9,4 C 83 % 1022,4 hPa 0,0 l/m 0 min 0 min 0 W/m 0,0 km/h (0 Bft) 97,83 %
01.06.2020 04:52 11,3 C 10,0 C 9,4 C 82 % 1022,4 hPa 0,0 l/m 0 min 0 min 0 W/m 0,0 km/h (0 Bft) 97,87 %
01.06.2020 04:50 11,3 C 10,0 C 9,4 C 82 % 1022,4 hPa 0,0 l/m 0 min 0 min 0 W/m 0,0 km/h (0 Bft) 100,00 %
01.06.2020 04:48 11,3 C 10,0 C 9,4 C 82 % 1022,5 hPa 0,0 l/m 0 min 0 min 0 W/m 0,0 km/h (0 Bft) 100,00 %
01.06.2020 04:46 11,3 C 10,0 C 9,4 C 81 % 1022,5 hPa 0,0 l/m 0 min 0 min 0 W/m 0,0 km/h (0 Bft) 97,87 %
01.06.2020 04:44 11,3 C 10,0 C 9,4 C 81 % 1022,5 hPa 0,0 l/m 0 min 0 min 0 W/m 0,0 km/h (0 Bft) 100,00 %
01.06.2020 04:42 11,3 C 10,0 C 9,4 C 81 % 1022,5 hPa 0,0 l/m 0 min 0 min 0 W/m 0,0 km/h (0 Bft) 100,00 %
01.06.2020 04:40 11,4 C 10,0 C 9,4 C 81 % 1022,5 hPa 0,0 l/m 0 min 0 min 0 W/m 0,0 km/h (0 Bft) 100,00 %
01.06.2020 04:38 11,4 C 10,0 C 9,4 C 81 % 1022,5 hPa 0,0 l/m 0 min 0 min 0 W/m 0,0 km/h (0 Bft) 95,74 %
01.06.2020 04:36 11,4 C 10,0 C 9,4 C 81 % 1022,5 hPa 0,0 l/m 0 min 0 min 0 W/m 0,0 km/h (0 Bft) 97,87 %
01.06.2020 04:34 11,4 C 10,0 C 9,4 C 81 % 1022,6 hPa 0,0 l/m 0 min 0 min 0 W/m 0,0 km/h (0 Bft) 100,00 %
01.06.2020 04:32 11,4 C 10,0 C 9,4 C 81 % 1022,6 hPa 0,0 l/m 0 min 0 min 0 W/m 0,0 km/h (0 Bft) 100,00 %
01.06.2020 04:30 11,4 C 10,0 C 9,4 C 81 % 1022,6 hPa 0,0 l/m 0 min 0 min 0 W/m 0,0 km/h (0 Bft) 100,00 %
01.06.2020 04:28 11,4 C 10,0 C 9,4 C 81 % 1022,6 hPa 0,0 l/m 0 min 0 min 0 W/m 0,0 km/h (0 Bft) 97,87 %
01.06.2020 04:26 11,4 C 10,0 C 9,4 C 81 % 1022,6 hPa 0,0 l/m 0 min 0 min 0 W/m 0,0 km/h (0 Bft) 97,87 %
01.06.2020 04:24 11,5 C 10,0 C 9,4 C 81 % 1022,6 hPa 0,0 l/m 0 min 0 min 0 W/m 0,0 km/h (0 Bft) 100,00 %
01.06.2020 04:22 11,5 C 10,0 C 9,4 C 81 % 1022,5 hPa 0,0 l/m 0 min 0 min 0 W/m 0,0 km/h (0 Bft) 100,00 %
01.06.2020 04:20 11,5 C 10,0 C 9,4 C 81 % 1022,6 hPa 0,0 l/m 0 min 0 min 0 W/m 0,0 km/h (0 Bft) 97,87 %
01.06.2020 04:18 11,6 C 10,0 C 9,4 C 81 % 1022,5 hPa 0,0 l/m 0 min 0 min 0 W/m 0,0 km/h (0 Bft) 100,00 %
01.06.2020 04:16 11,6 C 10,0 C 9,4 C 81 % 1022,6 hPa 0,0 l/m 0 min 0 min 0 W/m 0,0 km/h (0 Bft) 100,00 %
01.06.2020 04:14 11,6 C 10,6 C 9,4 C 81 % 1022,6 hPa 0,0 l/m 0 min 0 min 0 W/m 0,0 km/h (0 Bft) 100,00 %
01.06.2020 04:12 11,6 C 10,6 C 9,4 C 80 % 1022,6 hPa 0,0 l/m 0 min 0 min 0 W/m 0,0 km/h (0 Bft) 97,87 %
01.06.2020 04:10 11,6 C 10,0 C 9,4 C 80 % 1022,5 hPa 0,0 l/m 0 min 0 min 0 W/m 0,0 km/h (0 Bft) 97,87 %
01.06.2020 04:08 11,6 C 10,0 C 9,4 C 80 % 1022,5 hPa 0,0 l/m 0 min 0 min 0 W/m 0,0 km/h (0 Bft) 97,87 %
01.06.2020 04:06 11,6 C 10,0 C 9,4 C 80 % 1022,5 hPa 0,0 l/m 0 min 0 min 0 W/m 0,0 km/h (0 Bft) 100,00 %
01.06.2020 04:04 11,6 C 10,0 C 9,4 C 80 % 1022,6 hPa 0,0 l/m 0 min 0 min 0 W/m 0,0 km/h (0 Bft) 97,87 %
01.06.2020 04:02 11,7 C 10,0 C 9,4 C 80 % 1022,6 hPa 0,0 l/m 0 min 0 min 0 W/m 0,0 km/h (0 Bft) 100,00 %
01.06.2020 04:00 11,7 C 10,0 C 9,4 C 80 % 1022,5 hPa 0,0 l/m 0 min 0 min 0 W/m 0,0 km/h (0 Bft) 97,87 %
01.06.2020 03:58 11,7 C 10,0 C 9,4 C 80 % 1022,5 hPa 0,0 l/m 0 min 0 min 0 W/m 0,0 km/h (0 Bft) 95,74 %
01.06.2020 03:56 11,7 C 10,0 C 9,4 C 79 % 1022,5 hPa 0,0 l/m 0 min 0 min 0 W/m 0,0 km/h (0 Bft) 97,83 %
01.06.2020 03:54 11,7 C 10,0 C 9,4 C 79 % 1022,5 hPa 0,0 l/m 0 min 0 min 0 W/m 0,0 km/h (0 Bft) 93,62 %
01.06.2020 03:52 11,7 C 10,0 C 9,4 C 79 % 1022,5 hPa 0,0 l/m 0 min 0 min 0 W/m 0,0 km/h (0 Bft) 95,74 %
01.06.2020 03:50 11,8 C 10,0 C 9,4 C 79 % 1022,5 hPa 0,0 l/m 0 min 0 min 0 W/m 0,0 km/h (0 Bft) 95,74 %
01.06.2020 03:48 11,8 C 10,0 C 9,4 C 79 % 1022,5 hPa 0,0 l/m 0 min 0 min 0 W/m 0,0 km/h (0 Bft) 93,62 %
01.06.2020 03:46 11,8 C 10,0 C 10,0 C 79 % 1022,5 hPa 0,0 l/m 0 min 0 min 0 W/m 0,0 km/h (0 Bft) 95,74 %
01.06.2020 03:44 11,8 C 10,0 C 10,0 C 79 % 1022,5 hPa 0,0 l/m 0 min 0 min 0 W/m 0,0 km/h (0 Bft) 93,48 %
01.06.2020 03:42 11,8 C 10,6 C 10,0 C 78 % 1022,5 hPa 0,0 l/m 0 min 0 min 0 W/m 0,0 km/h (0 Bft) 95,74 %
01.06.2020 03:40 11,8 C 10,6 C 10,0 C 78 % 1022,5 hPa 0,0 l/m 0 min 0 min 0 W/m 0,0 km/h (0 Bft) 95,74 %
01.06.2020 03:38 11,9 C 10,6 C 10,0 C 78 % 1022,5 hPa 0,0 l/m 0 min 0 min 0 W/m 0,0 km/h (0 Bft) 95,74 %
01.06.2020 03:36 11,9 C 10,6 C 10,0 C 78 % 1022,5 hPa 0,0 l/m 0 min 0 min 0 W/m 0,0 km/h (0 Bft) 93,62 %
01.06.2020 03:34 11,9 C 10,6 C 10,0 C 78 % 1022,5 hPa 0,0 l/m 0 min 0 min 0 W/m 0,0 km/h (0 Bft) 93,62 %
01.06.2020 03:32 11,9 C 10,6 C 10,0 C 77 % 1022,5 hPa 0,0 l/m 0 min 0 min 0 W/m 0,0 km/h (0 Bft) 95,65 %
01.06.2020 03:30 12,0 C 10,6 C 10,0 C 77 % 1022,5 hPa 0,0 l/m 0 min 0 min 0 W/m 0,0 km/h (0 Bft) 95,74 %
01.06.2020 03:28 12,0 C 10,6 C 10,0 C 77 % 1022,6 hPa 0,0 l/m 0 min 0 min 0 W/m 0,0 km/h (0 Bft) 95,74 %
01.06.2020 03:26 12,1 C 10,6 C 10,0 C 76 % 1022,6 hPa 0,0 l/m 0 min 0 min 0 W/m 0,0 km/h (0 Bft) 93,62 %
01.06.2020 03:24 12,1 C 10,6 C 10,0 C 76 % 1022,6 hPa 0,0 l/m 0 min 0 min 0 W/m 0,0 km/h (0 Bft) 95,74 %
01.06.2020 03:22 12,1 C 10,6 C 10,0 C 76 % 1022,6 hPa 0,0 l/m 0 min 0 min 0 W/m 0,0 km/h (0 Bft) 95,74 %
01.06.2020 03:20 12,1 C 10,6 C 10,0 C 76 % 1022,6 hPa 0,0 l/m 0 min 0 min 0 W/m 0,0 km/h (0 Bft) 97,83 %
01.06.2020 03:18 12,2 C 10,6 C 10,0 C 76 % 1022,6 hPa 0,0 l/m 0 min 0 min 0 W/m 0,0 km/h (0 Bft) 97,87 %
01.06.2020 03:16 12,2 C 10,6 C 10,0 C 76 % 1022,5 hPa 0,0 l/m 0 min 0 min 0 W/m 0,0 km/h (0 Bft) 93,62 %
01.06.2020 03:14 12,2 C 10,6 C 10,0 C 76 % 1022,6 hPa 0,0 l/m 0 min 0 min 0 W/m 0,0 km/h (0 Bft) 97,87 %
01.06.2020 03:12 12,3 C 10,6 C 10,0 C 76 % 1022,6 hPa 0,0 l/m 0 min 0 min 0 W/m 0,0 km/h (0 Bft) 97,87 %
01.06.2020 03:10 12,3 C 10,0 C 10,0 C 75 % 1022,6 hPa 0,0 l/m 0 min 0 min 0 W/m 0,0 km/h (0 Bft) 97,83 %
01.06.2020 03:08 12,3 C 10,0 C 10,0 C 75 % 1022,6 hPa 0,0 l/m 0 min 0 min 0 W/m 0,0 km/h (0 Bft) 97,87 %
01.06.2020 03:06 12,3 C 10,0 C 10,0 C 76 % 1022,6 hPa 0,0 l/m 0 min 0 min 0 W/m 0,0 km/h (0 Bft) 97,87 %
01.06.2020 03:04 12,4 C 10,0 C 10,0 C 76 % 1022,6 hPa 0,0 l/m 0 min 0 min 0 W/m 0,0 km/h (0 Bft) 95,74 %
01.06.2020 03:02 12,4 C 10,0 C 10,0 C 76 % 1022,6 hPa 0,0 l/m 0 min 0 min 0 W/m 0,0 km/h (0 Bft) 97,87 %
01.06.2020 03:00 12,5 C 10,6 C 10,0 C 75 % 1022,7 hPa 0,0 l/m 0 min 0 min 0 W/m 0,0 km/h (0 Bft) 97,87 %
01.06.2020 02:58 12,5 C 10,6 C 10,0 C 75 % 1022,7 hPa 0,0 l/m 0 min 0 min 0 W/m 0,0 km/h (0 Bft) 97,87 %
01.06.2020 02:56 12,6 C 10,0 C 10,0 C 75 % 1022,6 hPa 0,0 l/m 0 min 0 min 0 W/m 0,0 km/h (0 Bft) 97,83 %
01.06.2020 02:54 12,6 C 10,6 C 10,0 C 75 % 1022,7 hPa 0,0 l/m 0 min 0 min 0 W/m 0,0 km/h (0 Bft) 100,00 %
01.06.2020 02:52 12,6 C 10,6 C 10,0 C 75 % 1022,6 hPa 0,0 l/m 0 min 0 min 0 W/m 0,0 km/h (0 Bft) 100,00 %
01.06.2020 02:50 12,7 C 10,6 C 10,0 C 75 % 1022,7 hPa 0,0 l/m 0 min 0 min 0 W/m 0,0 km/h (0 Bft) 97,87 %
01.06.2020 02:48 12,7 C 10,6 C 10,0 C 75 % 1022,7 hPa 0,0 l/m 0 min 0 min 0 W/m 0,0 km/h (0 Bft) 97,87 %
01.06.2020 02:46 12,7 C 10,6 C 10,0 C 75 % 1022,6 hPa 0,0 l/m 0 min 0 min 0 W/m 0,0 km/h (0 Bft) 100,00 %
01.06.2020 02:44 12,8 C 10,6 C 10,0 C 75 % 1022,6 hPa 0,0 l/m 0 min 0 min 0 W/m 0,0 km/h (0 Bft) 100,00 %
01.06.2020 02:42 12,8 C 10,6 C 10,0 C 75 % 1022,7 hPa 0,0 l/m 0 min 0 min 0 W/m 0,0 km/h (0 Bft) 97,87 %
01.06.2020 02:40 12,8 C 10,6 C 10,0 C 75 % 1022,6 hPa 0,0 l/m 0 min 0 min 0 W/m 0,0 km/h (0 Bft) 97,87 %
01.06.2020 02:38 12,9 C 10,6 C 10,0 C 75 % 1022,6 hPa 0,0 l/m 0 min 0 min 0 W/m 0,0 km/h (0 Bft) 100,00 %
01.06.2020 02:36 12,9 C 10,6 C 10,0 C 75 % 1022,6 hPa 0,0 l/m 0 min 0 min 0 W/m 0,0 km/h (0 Bft) 100,00 %
01.06.2020 02:34 12,9 C 10,6 C 10,6 C 74 % 1022,6 hPa 0,0 l/m 0 min 0 min 0 W/m 0,0 km/h (0 Bft) 100,00 %
01.06.2020 02:32 13,0 C 10,6 C 10,6 C 74 % 1022,7 hPa 0,0 l/m 0 min 0 min 0 W/m 0,0 km/h (0 Bft) 95,74 %
01.06.2020 02:30 13,0 C 10,6 C 10,6 C 74 % 1022,7 hPa 0,0 l/m 0 min 0 min 0 W/m 0,0 km/h (0 Bft) 97,87 %
01.06.2020 02:28 13,1 C 10,6 C 10,6 C 74 % 1022,7 hPa 0,0 l/m 0 min 0 min 0 W/m 0,0 km/h (0 Bft) 97,87 %
01.06.2020 02:26 13,1 C 10,6 C 10,6 C 74 % 1022,6 hPa 0,0 l/m 0 min 0 min 0 W/m 0,0 km/h (0 Bft) 97,87 %
01.06.2020 02:24 13,1 C 10,6 C 10,6 C 74 % 1022,7 hPa 0,0 l/m 0 min 0 min 0 W/m 0,0 km/h (0 Bft) 97,87 %
01.06.2020 02:22 13,1 C 11,1 C 10,6 C 74 % 1022,6 hPa 0,0 l/m 0 min 0 min 0 W/m 0,0 km/h (0 Bft) 97,83 %
01.06.2020 02:20 13,2 C 11,1 C 10,6 C 73 % 1022,6 hPa 0,0 l/m 0 min 0 min 0 W/m 0,0 km/h (0 Bft) 97,87 %
01.06.2020 02:18 13,2 C 11,1 C 10,6 C 73 % 1022,6 hPa 0,0 l/m 0 min 0 min 0 W/m 0,0 km/h (0 Bft) 97,87 %
01.06.2020 02:16 13,2 C 11,1 C 10,6 C 73 % 1022,6 hPa 0,0 l/m 0 min 0 min 0 W/m 0,0 km/h (0 Bft) 95,74 %
01.06.2020 02:14 13,3 C 11,1 C 10,6 C 73 % 1022,6 hPa 0,0 l/m 0 min 0 min 0 W/m 0,0 km/h (0 Bft) 97,87 %
01.06.2020 02:12 13,3 C 11,1 C 11,1 C 73 % 1022,7 hPa 0,0 l/m 0 min 0 min 0 W/m 0,0 km/h (0 Bft) 97,87 %
01.06.2020 02:10 13,3 C 11,1 C 11,1 C 73 % 1022,6 hPa 0,0 l/m 0 min 0 min 0 W/m 0,0 km/h (0 Bft) 97,83 %
01.06.2020 02:08 13,3 C 11,1 C 11,1 C 73 % 1022,6 hPa 0,0 l/m 0 min 0 min 0 W/m 0,0 km/h (0 Bft) 97,87 %
01.06.2020 02:06 13,4 C 11,7 C 11,1 C 73 % 1022,6 hPa 0,0 l/m 0 min 0 min 0 W/m 0,0 km/h (0 Bft) 97,87 %
01.06.2020 02:04 13,4 C 11,7 C 11,1 C 73 % 1022,6 hPa 0,0 l/m 0 min 0 min 0 W/m 0,0 km/h (0 Bft) 93,62 %
01.06.2020 02:02 13,4 C 11,7 C 11,1 C 73 % 1022,5 hPa 0,0 l/m 0 min 0 min 0 W/m 0,0 km/h (0 Bft) 95,74 %
01.06.2020 02:00 13,5 C 11,7 C 11,1 C 73 % 1022,5 hPa 0,0 l/m 0 min 0 min 0 W/m 0,0 km/h (0 Bft) 95,74 %
01.06.2020 01:58 13,5 C 11,7 C 11,1 C 73 % 1022,5 hPa 0,0 l/m 0 min 0 min 0 W/m 0,0 km/h (0 Bft) 93,48 %
01.06.2020 01:56 13,6 C 11,7 C 11,1 C 73 % 1022,6 hPa 0,0 l/m 0 min 0 min 0 W/m 0,0 km/h (0 Bft) 95,74 %
01.06.2020 01:54 13,6 C 11,7 C 11,1 C 73 % 1022,5 hPa 0,0 l/m 0 min 0 min 0 W/m 0,0 km/h (0 Bft) 95,74 %
01.06.2020 01:52 13,6 C 11,7 C 11,1 C 73 % 1022,5 hPa 0,0 l/m 0 min 0 min 0 W/m 0,0 km/h (0 Bft) 93,62 %
01.06.2020 01:50 13,6 C 11,7 C 11,1 C 73 % 1022,6 hPa 0,0 l/m 0 min 0 min 0 W/m 0,0 km/h (0 Bft) 95,74 %
01.06.2020 01:48 13,7 C 11,7 C 11,1 C 73 % 1022,6 hPa 0,0 l/m 0 min 0 min 0 W/m 0,0 km/h (0 Bft) 95,74 %
01.06.2020 01:46 13,7 C 11,7 C 11,1 C 73 % 1022,6 hPa 0,0 l/m 0 min 0 min 0 W/m 0,0 km/h (0 Bft) 95,65 %
01.06.2020 01:44 13,7 C 11,7 C 11,1 C 73 % 1022,6 hPa 0,0 l/m 0 min 0 min 0 W/m 0,0 km/h (0 Bft) 95,74 %
01.06.2020 01:42 13,8 C 11,7 C 11,1 C 72 % 1022,6 hPa 0,0 l/m 0 min 0 min 0 W/m 0,0 km/h (0 Bft) 95,74 %
01.06.2020 01:40 13,8 C 11,7 C 11,1 C 72 % 1022,6 hPa 0,0 l/m 0 min 0 min 0 W/m 0,0 km/h (0 Bft) 95,74 %
01.06.2020 01:38 13,8 C 11,7 C 11,1 C 72 % 1022,7 hPa 0,0 l/m 0 min 0 min 0 W/m 0,0 km/h (0 Bft) 97,87 %
01.06.2020 01:36 13,8 C 11,7 C 11,1 C 72 % 1022,7 hPa 0,0 l/m 0 min 0 min 0 W/m 0,0 km/h (0 Bft) 97,83 %
01.06.2020 01:34 13,9 C 11,7 C 11,7 C 72 % 1022,7 hPa 0,0 l/m 0 min 0 min 0 W/m 0,0 km/h (0 Bft) 97,87 %
01.06.2020 01:32 13,9 C 11,7 C 11,7 C 72 % 1022,6 hPa 0,0 l/m 0 min 0 min 0 W/m 0,0 km/h (0 Bft) 95,74 %
01.06.2020 01:30 13,9 C 11,7 C 11,7 C 72 % 1022,6 hPa 0,0 l/m 0 min 0 min 0 W/m 0,0 km/h (0 Bft) 97,87 %
01.06.2020 01:28 13,9 C 12,2 C 11,7 C 72 % 1022,7 hPa 0,0 l/m 0 min 0 min 0 W/m 0,0 km/h (0 Bft) 97,87 %
01.06.2020 01:26 13,9 C 12,2 C 11,7 C 72 % 1022,7 hPa 0,0 l/m 0 min 0 min 0 W/m 0,0 km/h (0 Bft) 97,87 %
01.06.2020 01:24 14,0 C 12,2 C 11,7 C 72 % 1022,7 hPa 0,0 l/m 0 min 0 min 0 W/m 0,0 km/h (0 Bft) 97,83 %
01.06.2020 01:22 14,0 C 12,2 C 11,7 C 72 % 1022,7 hPa 0,0 l/m 0 min 0 min 0 W/m 0,0 km/h (0 Bft) 100,00 %
01.06.2020 01:20 14,0 C 12,2 C 11,7 C 72 % 1022,7 hPa 0,0 l/m 0 min 0 min 0 W/m 0,0 km/h (0 Bft) 100,00 %
01.06.2020 01:18 14,1 C 12,2 C 11,7 C 72 % 1022,7 hPa 0,0 l/m 0 min 0 min 0 W/m 0,0 km/h (0 Bft) 97,87 %
01.06.2020 01:16 14,1 C 12,2 C 12,2 C 72 % 1022,7 hPa 0,0 l/m 0 min 0 min 0 W/m 0,0 km/h (0 Bft) 97,87 %
01.06.2020 01:14 14,1 C 12,2 C 12,2 C 72 % 1022,7 hPa 0,0 l/m 0 min 0 min 0 W/m 0,0 km/h (0 Bft) 100,00 %
01.06.2020 01:12 14,1 C 12,8 C 12,2 C 72 % 1022,7 hPa 0,0 l/m 0 min 0 min 0 W/m 0,0 km/h (0 Bft) 97,83 %
01.06.2020 01:10 14,1 C 12,8 C 12,2 C 72 % 1022,6 hPa 0,0 l/m 0 min 0 min 0 W/m 0,0 km/h (0 Bft) 100,00 %
01.06.2020 01:08 14,1 C 12,8 C 12,2 C 72 % 1022,6 hPa 0,0 l/m 0 min 0 min 0 W/m 0,0 km/h (0 Bft) 100,00 %
01.06.2020 01:06 14,2 C 12,8 C 12,2 C 72 % 1022,6 hPa 0,0 l/m 0 min 0 min 0 W/m 0,0 km/h (0 Bft) 100,00 %
01.06.2020 01:04 14,2 C 12,8 C 12,2 C 71 % 1022,6 hPa 0,0 l/m 0 min 0 min 0 W/m 0,0 km/h (0 Bft) 100,00 %
01.06.2020 01:02 14,2 C 12,8 C 12,2 C 71 % 1022,6 hPa 0,0 l/m 0 min 0 min 0 W/m 0,0 km/h (0 Bft) 100,00 %
01.06.2020 01:00 14,2 C 12,8 C 12,2 C 71 % 1022,6 hPa 0,0 l/m 0 min 0 min 0 W/m 0,0 km/h (0 Bft) 100,00 %
01.06.2020 00:58 14,3 C 12,8 C 12,2 C 71 % 1022,6 hPa 0,0 l/m 0 min 0 min 0 W/m 0,0 km/h (0 Bft) 100,00 %
01.06.2020 00:56 14,3 C 12,8 C 12,2 C 71 % 1022,6 hPa 0,0 l/m 0 min 0 min 0 W/m 0,0 km/h (0 Bft) 100,00 %
01.06.2020 00:54 14,3 C 12,8 C 12,2 C 71 % 1022,6 hPa 0,0 l/m 0 min 0 min 0 W/m 0,0 km/h (0 Bft) 100,00 %
01.06.2020 00:52 14,3 C 12,8 C 12,2 C 71 % 1022,6 hPa 0,0 l/m 0 min 0 min 0 W/m 0,0 km/h (0 Bft) 100,00 %
01.06.2020 00:50 14,3 C 12,8 C 12,2 C 71 % 1022,6 hPa 0,0 l/m 0 min 0 min 0 W/m 0,0 km/h (0 Bft) 100,00 %
01.06.2020 00:48 14,3 C 12,8 C 12,2 C 71 % 1022,6 hPa 0,0 l/m 0 min 0 min 0 W/m 3,2 km/h (1 Bft) 100,00 %
01.06.2020 00:46 14,3 C 12,8 C 12,2 C 71 % 1022,6 hPa 0,0 l/m 0 min 0 min 0 W/m 0,0 km/h (0 Bft) 100,00 %
01.06.2020 00:44 14,3 C 12,8 C 12,2 C 71 % 1022,6 hPa 0,0 l/m 0 min 0 min 0 W/m 0,0 km/h (0 Bft) 100,00 %
01.06.2020 00:42 14,3 C 12,8 C 12,2 C 71 % 1022,6 hPa 0,0 l/m 0 min 0 min 0 W/m 0,0 km/h (0 Bft) 100,00 %
01.06.2020 00:40 14,3 C 12,8 C 12,8 C 70 % 1022,6 hPa 0,0 l/m 0 min 0 min 0 W/m 0,0 km/h (0 Bft) 100,00 %
01.06.2020 00:38 14,3 C 12,8 C 12,8 C 70 % 1022,6 hPa 0,0 l/m 0 min 0 min 0 W/m 0,0 km/h (0 Bft) 100,00 %
01.06.2020 00:36 14,4 C 12,8 C 12,2 C 70 % 1022,6 hPa 0,0 l/m 0 min 0 min 0 W/m 0,0 km/h (0 Bft) 100,00 %
01.06.2020 00:34 14,4 C 12,8 C 12,2 C 70 % 1022,6 hPa 0,0 l/m 0 min 0 min 0 W/m 0,0 km/h (0 Bft) 100,00 %
01.06.2020 00:32 14,4 C 12,8 C 12,2 C 70 % 1022,6 hPa 0,0 l/m 0 min 0 min 0 W/m 3,2 km/h (1 Bft) 100,00 %
01.06.2020 00:30 14,5 C 12,8 C 12,2 C 70 % 1022,6 hPa 0,0 l/m 0 min 0 min 0 W/m 3,2 km/h (1 Bft) 100,00 %
01.06.2020 00:28 14,6 C 12,8 C 12,2 C 70 % 1022,6 hPa 0,0 l/m 0 min 0 min 0 W/m 0,0 km/h (0 Bft) 100,00 %
01.06.2020 00:26 14,6 C 12,8 C 12,2 C 70 % 1022,6 hPa 0,0 l/m 0 min 0 min 0 W/m 0,0 km/h (0 Bft) 100,00 %
01.06.2020 00:24 14,6 C 12,8 C 12,8 C 70 % 1022,6 hPa 0,0 l/m 0 min 0 min 0 W/m 0,0 km/h (0 Bft) 100,00 %
01.06.2020 00:22 14,6 C 12,8 C 12,8 C 69 % 1022,6 hPa 0,0 l/m 0 min 0 min 0 W/m 0,0 km/h (0 Bft) 97,87 %
01.06.2020 00:20 14,7 C 12,8 C 12,8 C 69 % 1022,6 hPa 0,0 l/m 0 min 0 min 0 W/m 0,0 km/h (0 Bft) 100,00 %
01.06.2020 00:18 14,7 C 12,8 C 12,8 C 69 % 1022,5 hPa 0,0 l/m 0 min 0 min 0 W/m 0,0 km/h (0 Bft) 100,00 %
01.06.2020 00:16 14,7 C 12,8 C 12,8 C 69 % 1022,6 hPa 0,0 l/m 0 min 0 min 0 W/m 0,0 km/h (0 Bft) 97,87 %
01.06.2020 00:14 14,7 C 12,8 C 12,8 C 69 % 1022,5 hPa 0,0 l/m 0 min 0 min 0 W/m 0,0 km/h (0 Bft) 100,00 %
01.06.2020 00:12 14,8 C 12,8 C 12,8 C 69 % 1022,5 hPa 0,0 l/m 0 min 0 min 0 W/m 0,0 km/h (0 Bft) 95,74 %
01.06.2020 00:10 14,8 C 12,8 C 12,8 C 68 % 1022,5 hPa 0,0 l/m 0 min 0 min 0 W/m 0,0 km/h (0 Bft) 100,00 %
01.06.2020 00:08 14,8 C 12,8 C 12,8 C 68 % 1022,5 hPa 0,0 l/m 0 min 0 min 0 W/m 0,0 km/h (0 Bft) 100,00 %
01.06.2020 00:07 14,8 C 12,8 C 12,8 C 68 % 1022,6 hPa 0,0 l/m 0 min 0 min 0 W/m 0,0 km/h (0 Bft) 97,22 %
01.06.2020 00:04 14,9 C 12,8 C 12,8 C 68 % 1022,5 hPa 0,0 l/m 0 min 0 min 0 W/m 0,0 km/h (0 Bft) 100,00 %
01.06.2020 00:02 14,9 C 13,3 C 12,8 C 68 % 1022,5 hPa 0,0 l/m 0 min 0 min 0 W/m 0,0 km/h (0 Bft) 97,78 %
01.06.2020 00:00 14,9 C 13,3 C 12,8 C 68 % 1022,5 hPa 0,0 l/m 0 min 0 min 0 W/m 0,0 km/h (0 Bft) 100,00 %
31.05.2020 23:58 15,0 C 13,3 C 12,8 C 68 % 1022,5 hPa 0,0 l/m 0 min 0 min 0 W/m 0,0 km/h (0 Bft) 97,96 %
31.05.2020 23:56 15,0 C 13,3 C 12,8 C 68 % 1022,5 hPa 0,0 l/m 0 min 0 min 0 W/m 0,0 km/h (0 Bft) 100,00 %
31.05.2020 23:54 15,0 C 13,3 C 12,8 C 68 % 1022,4 hPa 0,0 l/m 0 min 0 min 0 W/m 0,0 km/h (0 Bft) 98,11 %
31.05.2020 23:52 15,1 C 13,3 C 12,8 C 68 % 1022,4 hPa 0,0 l/m 0 min 0 min 0 W/m 0,0 km/h (0 Bft) 97,83 %
31.05.2020 23:50 15,1 C 13,3 C 13,3 C 68 % 1022,4 hPa 0,0 l/m 0 min 0 min 0 W/m 0,0 km/h (0 Bft) 93,62 %
31.05.2020 23:48 15,1 C 13,3 C 13,3 C 68 % 1022,4 hPa 0,0 l/m 0 min 0 min 0 W/m 0,0 km/h (0 Bft) 93,62 %
31.05.2020 23:46 15,1 C 13,3 C 13,3 C 68 % 1022,4 hPa 0,0 l/m 0 min 0 min 0 W/m 0,0 km/h (0 Bft) 95,92 %
31.05.2020 23:44 15,1 C 13,9 C 13,3 C 67 % 1022,4 hPa 0,0 l/m 0 min 0 min 0 W/m 0,0 km/h (0 Bft) 94,74 %
31.05.2020 23:42 15,2 C 13,9 C 13,3 C 67 % 1022,4 hPa 0,0 l/m 0 min 0 min 0 W/m 0,0 km/h (0 Bft) 94,44 %
31.05.2020 23:40 15,2 C 13,9 C 13,3 C 67 % 1022,3 hPa 0,0 l/m 0 min 0 min 0 W/m 0,0 km/h (0 Bft) 93,62 %
31.05.2020 23:38 15,2 C 13,9 C 13,3 C 67 % 1022,3 hPa 0,0 l/m 0 min 0 min 0 W/m 0,0 km/h (0 Bft) 95,65 %
31.05.2020 23:36 15,2 C 13,9 C 13,3 C 67 % 1022,3 hPa 0,0 l/m 0 min 0 min 0 W/m 0,0 km/h (0 Bft) 95,74 %
31.05.2020 23:34 15,3 C 13,9 C 13,3 C 67 % 1022,4 hPa 0,0 l/m 0 min 0 min 0 W/m 0,0 km/h (0 Bft) 95,92 %
31.05.2020 23:32 15,3 C 13,9 C 13,3 C 67 % 1022,4 hPa 0,0 l/m 0 min 0 min 0 W/m 0,0 km/h (0 Bft) 92,11 %
31.05.2020 23:30 15,3 C 13,9 C 13,3 C 66 % 1022,4 hPa 0,0 l/m 0 min 0 min 0 W/m 3,2 km/h (1 Bft) 94,44 %
31.05.2020 23:28 15,3 C 13,9 C 13,3 C 66 % 1022,4 hPa 0,0 l/m 0 min 0 min 0 W/m 3,2 km/h (1 Bft) 93,48 %
31.05.2020 23:26 15,4 C 13,9 C 13,3 C 66 % 1022,4 hPa 0,0 l/m 0 min 0 min 0 W/m 0,0 km/h (0 Bft) 96,00 %
31.05.2020 23:24 15,4 C 13,9 C 13,3 C 66 % 1022,4 hPa 0,0 l/m 0 min 0 min 0 W/m 0,0 km/h (0 Bft) 93,48 %
31.05.2020 23:22 15,4 C 13,9 C 13,3 C 66 % 1022,3 hPa 0,0 l/m 0 min 0 min 0 W/m 0,0 km/h (0 Bft) 89,13 %
31.05.2020 23:20 15,5 C 13,9 C 13,3 C 66 % 1022,4 hPa 0,0 l/m 0 min 0 min 0 W/m 0,0 km/h (0 Bft) 95,74 %
31.05.2020 23:18 15,5 C 13,9 C 13,3 C 65 % 1022,3 hPa 0,0 l/m 0 min 0 min 0 W/m 0,0 km/h (0 Bft) 92,11 %
31.05.2020 23:16 15,6 C 13,9 C 13,3 C 65 % 1022,3 hPa 0,0 l/m 0 min 0 min 0 W/m 0,0 km/h (0 Bft) 92,59 %
31.05.2020 23:14 15,6 C 13,9 C 13,3 C 65 % 1022,3 hPa 0,0 l/m 0 min 0 min 0 W/m 3,2 km/h (1 Bft) 95,74 %
31.05.2020 23:12 15,6 C 13,9 C 13,3 C 65 % 1022,3 hPa 0,0 l/m 0 min 0 min 0 W/m 0,0 km/h (0 Bft) 95,92 %
31.05.2020 23:10 15,6 C 13,9 C 13,3 C 65 % 1022,3 hPa 0,0 l/m 0 min 0 min 0 W/m 0,0 km/h (0 Bft) 93,48 %
31.05.2020 23:08 15,7 C 13,9 C 13,9 C 65 % 1022,2 hPa 0,0 l/m 0 min 0 min 0 W/m 0,0 km/h (0 Bft) 91,49 %
31.05.2020 23:06 15,7 C 13,9 C 13,9 C 65 % 1022,2 hPa 0,0 l/m 0 min 0 min 0 W/m 0,0 km/h (0 Bft) 94,74 %
31.05.2020 23:04 15,8 C 13,9 C 13,9 C 64 % 1022,2 hPa 0,0 l/m 0 min 0 min 0 W/m 0,0 km/h (0 Bft) 92,59 %
31.05.2020 23:02 15,8 C 13,9 C 13,9 C 64 % 1022,2 hPa 0,0 l/m 0 min 0 min 0 W/m 0,0 km/h (0 Bft) 93,62 %
31.05.2020 23:00 15,8 C 13,9 C 13,9 C 64 % 1022,2 hPa 0,0 l/m 0 min 0 min 0 W/m 0,0 km/h (0 Bft) 95,83 %
31.05.2020 22:58 15,9 C 13,9 C 13,9 C 64 % 1022,2 hPa 0,0 l/m 0 min 0 min 0 W/m 3,2 km/h (1 Bft) 97,37 %
31.05.2020 22:56 15,9 C 13,9 C 13,9 C 64 % 1022,2 hPa 0,0 l/m 0 min 0 min 0 W/m 0,0 km/h (0 Bft) 96,36 %
31.05.2020 22:54 16,0 C 13,9 C 13,9 C 64 % 1022,2 hPa 0,0 l/m 0 min 0 min 0 W/m 0,0 km/h (0 Bft) 95,74 %
31.05.2020 22:52 16,1 C 13,9 C 13,9 C 64 % 1022,1 hPa 0,0 l/m 0 min 0 min 0 W/m 0,0 km/h (0 Bft) 95,83 %
31.05.2020 22:50 16,1 C 13,9 C 13,9 C 64 % 1022,2 hPa 0,0 l/m 0 min 0 min 0 W/m 0,0 km/h (0 Bft) 94,74 %
31.05.2020 22:48 16,1 C 13,9 C 13,9 C 63 % 1022,2 hPa 0,0 l/m 0 min 0 min 0 W/m 0,0 km/h (0 Bft) 93,62 %
31.05.2020 22:46 16,2 C 13,9 C 13,9 C 63 % 1022,1 hPa 0,0 l/m 0 min 0 min 0 W/m 3,2 km/h (1 Bft) 94,44 %
31.05.2020 22:44 16,2 C 13,9 C 13,9 C 63 % 1022,1 hPa 0,0 l/m 0 min 0 min 0 W/m 0,0 km/h (0 Bft) 95,74 %
31.05.2020 22:42 16,3 C 13,9 C 13,9 C 63 % 1022,1 hPa 0,0 l/m 0 min 0 min 0 W/m 0,0 km/h (0 Bft) 95,74 %
31.05.2020 22:40 16,3 C 13,9 C 13,9 C 63 % 1022,1 hPa 0,0 l/m 0 min 0 min 0 W/m 0,0 km/h (0 Bft) 97,83 %
31.05.2020 22:38 16,4 C 14,4 C 13,9 C 63 % 1022,1 hPa 0,0 l/m 0 min 0 min 0 W/m 0,0 km/h (0 Bft) 100,00 %
31.05.2020 22:36 16,4 C 14,4 C 13,9 C 62 % 1022,1 hPa 0,0 l/m 0 min 0 min 0 W/m 0,0 km/h (0 Bft) 100,00 %
31.05.2020 22:34 16,5 C 14,4 C 13,9 C 63 % 1022,1 hPa 0,0 l/m 0 min 0 min 0 W/m 0,0 km/h (0 Bft) 98,18 %
31.05.2020 22:32 16,6 C 14,4 C 13,9 C 62 % 1022,1 hPa 0,0 l/m 0 min 0 min 0 W/m 0,0 km/h (0 Bft) 97,87 %
31.05.2020 22:30 16,6 C 14,4 C 13,9 C 62 % 1022,0 hPa 0,0 l/m 0 min 0 min 0 W/m 0,0 km/h (0 Bft) 100,00 %
31.05.2020 22:28 16,7 C 14,4 C 14,4 C 62 % 1022,0 hPa 0,0 l/m 0 min 0 min 0 W/m 3,2 km/h (1 Bft) 97,92 %
31.05.2020 22:26 16,7 C 14,4 C 14,4 C 62 % 1022,0 hPa 0,0 l/m 0 min 0 min 0 W/m 0,0 km/h (0 Bft) 100,00 %
31.05.2020 22:24 16,8 C 14,4 C 14,4 C 61 % 1022,0 hPa 0,0 l/m 0 min 0 min 0 W/m 0,0 km/h (0 Bft) 100,00 %
31.05.2020 22:22 16,8 C 14,4 C 14,4 C 61 % 1022,0 hPa 0,0 l/m 0 min 0 min 0 W/m 0,0 km/h (0 Bft) 100,00 %
31.05.2020 22:20 16,9 C 14,4 C 14,4 C 61 % 1022,0 hPa 0,0 l/m 0 min 0 min 0 W/m 0,0 km/h (0 Bft) 100,00 %
31.05.2020 22:18 16,9 C 14,4 C 14,4 C 61 % 1022,0 hPa 0,0 l/m 0 min 0 min 0 W/m 0,0 km/h (0 Bft) 100,00 %
31.05.2020 22:16 17,0 C 14,4 C 14,4 C 61 % 1022,0 hPa 0,0 l/m 0 min 0 min 0 W/m 0,0 km/h (0 Bft) 100,00 %
31.05.2020 22:14 17,1 C 14,4 C 14,4 C 61 % 1022,0 hPa 0,0 l/m 0 min 0 min 0 W/m 0,0 km/h (0 Bft) 100,00 %
31.05.2020 22:12 17,1 C 14,4 C 14,4 C 61 % 1022,0 hPa 0,0 l/m 0 min 0 min 0 W/m 0,0 km/h (0 Bft) 100,00 %
31.05.2020 22:10 17,2 C 15,0 C 14,4 C 60 % 1022,0 hPa 0,0 l/m 0 min 0 min 0 W/m 0,0 km/h (0 Bft) 100,00 %
31.05.2020 22:08 17,2 C 15,0 C 14,4 C 60 % 1021,9 hPa 0,0 l/m 0 min 0 min 0 W/m 0,0 km/h (0 Bft) 100,00 %
31.05.2020 22:06 17,3 C 15,0 C 14,4 C 60 % 1022,0 hPa 0,0 l/m 0 min 0 min 0 W/m 0,0 km/h (0 Bft) 100,00 %
31.05.2020 22:04 17,3 C 15,0 C 14,4 C 60 % 1022,0 hPa 0,0 l/m 0 min 0 min 0 W/m 0,0 km/h (0 Bft) 100,00 %
31.05.2020 22:02 17,4 C 15,0 C 15,0 C 60 % 1022,0 hPa 0,0 l/m 0 min 0 min 0 W/m 0,0 km/h (0 Bft) 100,00 %
31.05.2020 22:00 17,4 C 15,0 C 15,0 C 60 % 1021,9 hPa 0,0 l/m 0 min 0 min 0 W/m 0,0 km/h (0 Bft) 100,00 %
31.05.2020 21:58 17,6 C 15,0 C 15,0 C 60 % 1021,9 hPa 0,0 l/m 0 min 0 min 0 W/m 0,0 km/h (0 Bft) 100,00 %
31.05.2020 21:56 17,6 C 15,0 C 15,0 C 59 % 1021,9 hPa 0,0 l/m 0 min 0 min 0 W/m 0,0 km/h (0 Bft) 96,43 %
31.05.2020 21:54 17,6 C 15,0 C 15,0 C 59 % 1021,9 hPa 0,0 l/m 0 min 0 min 0 W/m 0,0 km/h (0 Bft) 100,00 %
31.05.2020 21:52 17,7 C 15,0 C 15,0 C 59 % 1021,9 hPa 0,0 l/m 0 min 0 min 0 W/m 0,0 km/h (0 Bft) 97,92 %
31.05.2020 21:50 17,7 C 15,6 C 15,0 C 59 % 1021,8 hPa 0,0 l/m 0 min 0 min 0 W/m 0,0 km/h (0 Bft) 100,00 %
31.05.2020 21:48 17,8 C 15,6 C 15,0 C 58 % 1021,8 hPa 0,0 l/m 0 min 0 min 0 W/m 0,0 km/h (0 Bft) 100,00 %
31.05.2020 21:46 17,8 C 15,6 C 15,0 C 58 % 1021,8 hPa 0,0 l/m 0 min 0 min 0 W/m 0,0 km/h (0 Bft) 100,00 %
31.05.2020 21:44 17,9 C 15,6 C 15,6 C 58 % 1021,8 hPa 0,0 l/m 0 min 0 min 0 W/m 0,0 km/h (0 Bft) 100,00 %
31.05.2020 21:42 17,9 C 15,6 C 15,6 C 58 % 1021,8 hPa 0,0 l/m 0 min 0 min 0 W/m 0,0 km/h (0 Bft) 100,00 %
31.05.2020 21:40 18,0 C 15,6 C 15,6 C 58 % 1021,8 hPa 0,0 l/m 0 min 0 min 0 W/m 0,0 km/h (0 Bft) 100,00 %
31.05.2020 21:38 18,1 C 15,6 C 15,6 C 58 % 1021,8 hPa 0,0 l/m 0 min 0 min 0 W/m 0,0 km/h (0 Bft) 94,74 %
31.05.2020 21:36 18,1 C 16,1 C 15,6 C 57 % 1021,8 hPa 0,0 l/m 0 min 0 min 0 W/m 3,2 km/h (1 Bft) 98,18 %
31.05.2020 21:34 18,2 C 16,1 C 16,1 C 58 % 1021,8 hPa 0,0 l/m 0 min 0 min 0 W/m 0,0 km/h (0 Bft) 95,74 %
31.05.2020 21:32 18,2 C 16,1 C 16,1 C 57 % 1021,7 hPa 0,0 l/m 0 min 0 min 4 W/m 6,4 km/h (2 Bft) 97,87 %
31.05.2020 21:30 18,3 C 16,1 C 16,1 C 57 % 1021,7 hPa 0,0 l/m 0 min 0 min 5 W/m 3,2 km/h (1 Bft) 100,00 %
31.05.2020 21:28 18,3 C 16,1 C 16,1 C 57 % 1021,7 hPa 0,0 l/m 0 min 0 min 5 W/m 3,2 km/h (1 Bft) 96,36 %
31.05.2020 21:26 18,4 C 16,1 C 16,1 C 57 % 1021,7 hPa 0,0 l/m 0 min 0 min 7 W/m 3,2 km/h (1 Bft) 97,87 %
31.05.2020 21:24 18,4 C 16,1 C 16,1 C 57 % 1021,7 hPa 0,0 l/m 0 min 0 min 8 W/m 3,2 km/h (1 Bft) 97,87 %
31.05.2020 21:22 18,5 C 16,1 C 16,1 C 57 % 1021,6 hPa 0,0 l/m 0 min 0 min 9 W/m 3,2 km/h (1 Bft) 97,87 %
31.05.2020 21:20 18,6 C 16,1 C 16,1 C 57 % 1021,6 hPa 0,0 l/m 0 min 0 min 11 W/m 3,2 km/h (1 Bft) 97,83 %
31.05.2020 21:18 18,6 C 16,7 C 16,1 C 57 % 1021,6 hPa 0,0 l/m 0 min 0 min 11 W/m 3,2 km/h (1 Bft) 97,87 %
31.05.2020 21:16 18,6 C 16,7 C 16,7 C 56 % 1021,6 hPa 0,0 l/m 0 min 0 min 12 W/m 3,2 km/h (1 Bft) 95,92 %
31.05.2020 21:14 18,7 C 16,7 C 16,7 C 56 % 1021,6 hPa 0,0 l/m 0 min 0 min 14 W/m 3,2 km/h (1 Bft) 97,22 %
31.05.2020 21:12 18,7 C 16,7 C 16,7 C 56 % 1021,6 hPa 0,0 l/m 0 min 0 min 14 W/m 3,2 km/h (1 Bft) 97,96 %
31.05.2020 21:10 18,8 C 16,7 C 16,7 C 56 % 1021,6 hPa 0,0 l/m 0 min 0 min 16 W/m 6,4 km/h (2 Bft) 97,87 %
31.05.2020 21:08 18,8 C 16,7 C 16,7 C 55 % 1021,6 hPa 0,0 l/m 0 min 0 min 18 W/m 9,7 km/h (2 Bft) 98,11 %
31.05.2020 21:06 18,8 C 16,7 C 16,7 C 55 % 1021,6 hPa 0,0 l/m 0 min 0 min 19 W/m 9,7 km/h (2 Bft) 97,87 %
31.05.2020 21:04 18,9 C 16,7 C 16,7 C 55 % 1021,6 hPa 0,0 l/m 0 min 0 min 19 W/m 0,0 km/h (0 Bft) 95,74 %
31.05.2020 21:02 18,9 C 17,2 C 16,7 C 55 % 1021,6 hPa 0,0 l/m 0 min 0 min 21 W/m 3,2 km/h (1 Bft) 93,48 %
31.05.2020 21:00 19,0 C 17,2 C 16,7 C 55 % 1021,6 hPa 0,0 l/m 0 min 0 min 22 W/m 3,2 km/h (1 Bft) 98,21 %
31.05.2020 20:58 19,1 C 17,2 C 16,7 C 55 % 1021,6 hPa 0,0 l/m 0 min 0 min 23 W/m 3,2 km/h (1 Bft) 97,14 %
31.05.2020 20:56 19,1 C 17,2 C 16,7 C 55 % 1021,5 hPa 0,0 l/m 0 min 0 min 25 W/m 6,4 km/h (2 Bft) 100,00 %
31.05.2020 20:54 19,1 C 17,2 C 17,2 C 55 % 1021,5 hPa 0,0 l/m 0 min 0 min 26 W/m 0,0 km/h (0 Bft) 100,00 %
31.05.2020 20:52 19,2 C 17,2 C 17,2 C 54 % 1021,5 hPa 0,0 l/m 0 min 0 min 27 W/m 3,2 km/h (1 Bft) 98,18 %
31.05.2020 20:50 19,2 C 17,2 C 17,2 C 55 % 1021,5 hPa 0,0 l/m 0 min 0 min 28 W/m 9,7 km/h (2 Bft) 97,14 %
31.05.2020 20:48 19,3 C 17,2 C 17,2 C 54 % 1021,5 hPa 0,0 l/m 0 min 0 min 29 W/m 6,4 km/h (2 Bft) 100,00 %
31.05.2020 20:46 19,3 C 17,8 C 17,2 C 54 % 1021,6 hPa 0,0 l/m 0 min 0 min 31 W/m 6,4 km/h (2 Bft) 100,00 %
31.05.2020 20:44 19,4 C 17,8 C 17,2 C 54 % 1021,5 hPa 0,0 l/m 0 min 0 min 32 W/m 3,2 km/h (1 Bft) 100,00 %
31.05.2020 20:42 19,4 C 17,8 C 17,2 C 54 % 1021,6 hPa 0,0 l/m 0 min 0 min 33 W/m 3,2 km/h (1 Bft) 94,55 %
31.05.2020 20:40 19,4 C 17,8 C 17,2 C 54 % 1021,5 hPa 0,0 l/m 0 min 0 min 34 W/m 3,2 km/h (1 Bft) 97,14 %
31.05.2020 20:38 19,5 C 17,8 C 17,2 C 53 % 1021,5 hPa 0,0 l/m 0 min 0 min 35 W/m 9,7 km/h (2 Bft) 100,00 %
31.05.2020 20:36 19,6 C 17,8 C 17,2 C 53 % 1021,5 hPa 0,0 l/m 0 min 0 min 36 W/m 6,4 km/h (2 Bft) 100,00 %
31.05.2020 20:34 19,6 C 17,8 C 17,2 C 54 % 1021,5 hPa 0,0 l/m 0 min 0 min 39 W/m 6,4 km/h (2 Bft) 100,00 %
31.05.2020 20:32 19,7 C 17,8 C 17,2 C 54 % 1021,5 hPa 0,0 l/m 0 min 0 min 39 W/m 0,0 km/h (0 Bft) 94,74 %
31.05.2020 20:30 19,7 C 17,8 C 17,8 C 54 % 1021,5 hPa 0,0 l/m 0 min 0 min 40 W/m 3,2 km/h (1 Bft) 100,00 %
31.05.2020 20:28 19,7 C 18,3 C 17,8 C 53 % 1021,5 hPa 0,0 l/m 0 min 0 min 42 W/m 3,2 km/h (1 Bft) 97,87 %
31.05.2020 20:26 19,8 C 18,3 C 17,8 C 53 % 1021,5 hPa 0,0 l/m 0 min 0 min 44 W/m 9,7 km/h (2 Bft) 94,00 %
31.05.2020 20:24 19,8 C 18,3 C 17,8 C 53 % 1021,5 hPa 0,0 l/m 0 min 0 min 46 W/m 6,4 km/h (2 Bft) 97,87 %
31.05.2020 20:22 19,8 C 18,3 C 17,8 C 53 % 1021,5 hPa 0,0 l/m 0 min 0 min 47 W/m 6,4 km/h (2 Bft) 97,87 %
31.05.2020 20:20 19,9 C 18,3 C 17,8 C 52 % 1021,5 hPa 0,0 l/m 0 min 0 min 48 W/m 9,7 km/h (2 Bft) 97,83 %
31.05.2020 20:18 19,9 C 18,3 C 17,8 C 52 % 1021,4 hPa 0,0 l/m 0 min 0 min 49 W/m 3,2 km/h (1 Bft) 98,04 %
31.05.2020 20:16 20,0 C 18,3 C 17,8 C 52 % 1021,4 hPa 0,0 l/m 0 min 0 min 51 W/m 9,7 km/h (2 Bft) 97,67 %
31.05.2020 20:14 20,1 C 18,3 C 17,8 C 52 % 1021,4 hPa 0,0 l/m 0 min 0 min 53 W/m 6,4 km/h (2 Bft) 95,74 %
31.05.2020 20:12 20,1 C 18,3 C 17,8 C 53 % 1021,5 hPa 0,0 l/m 0 min 0 min 53 W/m 6,4 km/h (2 Bft) 97,87 %
31.05.2020 20:09 20,2 C 18,3 C 17,8 C 52 % 1021,4 hPa 0,0 l/m 0 min 0 min 54 W/m 12,9 km/h (3 Bft) 95,65 %
31.05.2020 20:08 20,2 C 18,9 C 17,8 C 52 % 1021,4 hPa 0,0 l/m 0 min 0 min 55 W/m 6,4 km/h (2 Bft) 97,87 %
31.05.2020 20:06 20,3 C 18,9 C 18,3 C 52 % 1021,4 hPa 0,0 l/m 0 min 0 min 57 W/m 9,7 km/h (2 Bft) 97,87 %
31.05.2020 20:04 20,4 C 18,9 C 18,3 C 53 % 1021,4 hPa 0,0 l/m 0 min 0 min 58 W/m 12,9 km/h (3 Bft) 95,74 %
31.05.2020 20:02 20,4 C 18,9 C 18,3 C 52 % 1021,4 hPa 0,0 l/m 0 min 0 min 60 W/m 12,9 km/h (3 Bft) 95,74 %
31.05.2020 20:00 20,5 C 18,9 C 18,3 C 52 % 1021,4 hPa 0,0 l/m 0 min 0 min 62 W/m 9,7 km/h (2 Bft) 95,74 %
31.05.2020 19:58 20,6 C 18,9 C 18,3 C 52 % 1021,4 hPa 0,0 l/m 0 min 0 min 63 W/m 3,2 km/h (1 Bft) 95,65 %
31.05.2020 19:56 20,7 C 18,9 C 18,3 C 51 % 1021,4 hPa 0,0 l/m 0 min 0 min 64 W/m 12,9 km/h (3 Bft) 98,00 %
31.05.2020 19:54 20,8 C 18,9 C 18,3 C 51 % 1021,4 hPa 0,0 l/m 0 min 0 min 66 W/m 9,7 km/h (2 Bft) 93,62 %
31.05.2020 19:52 20,8 C 18,9 C 18,3 C 51 % 1021,4 hPa 0,0 l/m 0 min 0 min 68 W/m 9,7 km/h (2 Bft) 95,65 %
31.05.2020 19:50 21,0 C 18,9 C 18,3 C 51 % 1021,3 hPa 0,0 l/m 0 min 0 min 70 W/m 9,7 km/h (2 Bft) 95,74 %
31.05.2020 19:48 21,1 C 18,9 C 18,3 C 51 % 1021,4 hPa 0,0 l/m 0 min 0 min 71 W/m 6,4 km/h (2 Bft) 93,62 %
31.05.2020 19:46 21,1 C 19,4 C 18,3 C 51 % 1021,4 hPa 0,0 l/m 0 min 0 min 74 W/m 9,7 km/h (2 Bft) 97,87 %
31.05.2020 19:44 21,2 C 19,4 C 18,3 C 51 % 1021,4 hPa 0,0 l/m 0 min 0 min 77 W/m 6,4 km/h (2 Bft) 97,87 %
31.05.2020 19:42 21,3 C 19,4 C 18,3 C 51 % 1021,4 hPa 0,0 l/m 0 min 0 min 81 W/m 6,4 km/h (2 Bft) 97,83 %
31.05.2020 19:40 21,3 C 19,4 C 18,3 C 50 % 1021,3 hPa 0,0 l/m 0 min 0 min 100 W/m 9,7 km/h (2 Bft) 100,00 %
31.05.2020 19:38 21,4 C 20,0 C 18,9 C 50 % 1021,4 hPa 0,0 l/m 0 min 0 min 92 W/m 6,4 km/h (2 Bft) 95,74 %
31.05.2020 19:36 21,4 C 20,0 C 18,9 C 50 % 1021,4 hPa 0,0 l/m 0 min 0 min 86 W/m 6,4 km/h (2 Bft) 95,74 %
31.05.2020 19:34 21,6 C 20,0 C 18,9 C 51 % 1021,4 hPa 0,0 l/m 0 min 0 min 88 W/m 12,9 km/h (3 Bft) 97,87 %
31.05.2020 19:32 21,6 C 20,6 C 18,9 C 50 % 1021,4 hPa 0,0 l/m 0 min 0 min 97 W/m 3,2 km/h (1 Bft) 98,11 %
31.05.2020 19:30 21,6 C 20,6 C 18,9 C 50 % 1021,4 hPa 0,0 l/m 2 min 0 min 182 W/m 6,4 km/h (2 Bft) 100,00 %
31.05.2020 19:28 21,6 C 20,6 C 18,9 C 50 % 1021,3 hPa 0,0 l/m 2 min 0 min 244 W/m 9,7 km/h (2 Bft) 95,74 %
31.05.2020 19:26 21,7 C 20,6 C 18,9 C 49 % 1021,3 hPa 0,0 l/m 2 min 0 min 255 W/m 9,7 km/h (2 Bft) 97,87 %
31.05.2020 19:24 21,7 C 20,6 C 18,9 C 49 % 1021,4 hPa 0,0 l/m 2 min 0 min 258 W/m 9,7 km/h (2 Bft) 97,87 %
31.05.2020 19:22 21,8 C 20,6 C 18,9 C 49 % 1021,4 hPa 0,0 l/m 2 min 0 min 263 W/m 12,9 km/h (3 Bft) 97,83 %
31.05.2020 19:20 21,8 C 20,6 C 18,9 C 49 % 1021,3 hPa 0,0 l/m 2 min 0 min 272 W/m 9,7 km/h (2 Bft) 97,87 %
31.05.2020 19:18 21,8 C 20,6 C 18,9 C 50 % 1021,3 hPa 0,0 l/m 2 min 0 min 277 W/m 12,9 km/h (3 Bft) 97,87 %
31.05.2020 19:16 21,9 C 21,1 C 18,9 C 50 % 1021,3 hPa 0,0 l/m 2 min 0 min 281 W/m 9,7 km/h (2 Bft) 97,87 %
31.05.2020 19:14 22,0 C 21,1 C 18,9 C 50 % 1021,3 hPa 0,0 l/m 2 min 0 min 286 W/m 12,9 km/h (3 Bft) 97,87 %
31.05.2020 19:12 22,1 C 21,1 C 18,9 C 50 % 1021,3 hPa 0,0 l/m 2 min 0 min 283 W/m 6,4 km/h (2 Bft) 100,00 %
31.05.2020 19:10 22,1 C 21,1 C 18,9 C 50 % 1021,3 hPa 0,0 l/m 2 min 0 min 286 W/m 12,9 km/h (3 Bft) 100,00 %
31.05.2020 19:08 22,1 C 21,7 C 18,9 C 50 % 1021,2 hPa 0,0 l/m 2 min 0 min 282 W/m 6,4 km/h (2 Bft) 100,00 %
31.05.2020 19:06 22,2 C 21,7 C 19,4 C 49 % 1021,3 hPa 0,0 l/m 2 min 0 min 294 W/m 6,4 km/h (2 Bft) 100,00 %
31.05.2020 19:04 22,2 C 21,7 C 19,4 C 50 % 1021,3 hPa 0,0 l/m 2 min 0 min 298 W/m 6,4 km/h (2 Bft) 100,00 %
31.05.2020 19:02 22,3 C 21,1 C 19,4 C 48 % 1021,3 hPa 0,0 l/m 2 min 0 min 294 W/m 16,1 km/h (3 Bft) 100,00 %
31.05.2020 19:00 22,4 C 21,1 C 19,4 C 48 % 1021,3 hPa 0,0 l/m 2 min 0 min 290 W/m 9,7 km/h (2 Bft) 100,00 %
31.05.2020 18:58 22,4 C 21,7 C 19,4 C 48 % 1021,3 hPa 0,0 l/m 2 min 0 min 281 W/m 6,4 km/h (2 Bft) 100,00 %
31.05.2020 18:56 22,6 C 21,1 C 19,4 C 48 % 1021,3 hPa 0,0 l/m 2 min 0 min 286 W/m 6,4 km/h (2 Bft) 100,00 %
31.05.2020 18:54 22,6 C 21,7 C 19,4 C 49 % 1021,3 hPa 0,0 l/m 2 min 0 min 294 W/m 12,9 km/h (3 Bft) 100,00 %
31.05.2020 18:52 22,6 C 21,7 C 19,4 C 49 % 1021,3 hPa 0,0 l/m 2 min 0 min 307 W/m 6,4 km/h (2 Bft) 97,87 %
31.05.2020 18:50 22,7 C 21,7 C 19,4 C 48 % 1021,3 hPa 0,0 l/m 2 min 0 min 318 W/m 9,7 km/h (2 Bft) 100,00 %
31.05.2020 18:48 22,8 C 21,7 C 19,4 C 47 % 1021,3 hPa 0,0 l/m 2 min 0 min 316 W/m 6,4 km/h (2 Bft) 97,83 %
31.05.2020 18:46 22,9 C 21,7 C 19,4 C 47 % 1021,2 hPa 0,0 l/m 2 min 0 min 259 W/m 9,7 km/h (2 Bft) 95,74 %
31.05.2020 18:44 22,9 C 22,2 C 20,0 C 48 % 1021,3 hPa 0,0 l/m 2 min 0 min 292 W/m 16,1 km/h (3 Bft) 95,74 %
31.05.2020 18:42 23,0 C 22,2 C 20,0 C 48 % 1021,3 hPa 0,0 l/m 2 min 0 min 319 W/m 9,7 km/h (2 Bft) 97,87 %
31.05.2020 18:40 23,1 C 22,2 C 20,0 C 48 % 1021,3 hPa 0,0 l/m 2 min 0 min 321 W/m 12,9 km/h (3 Bft) 95,92 %
31.05.2020 18:38 23,1 C 22,8 C 20,0 C 47 % 1021,2 hPa 0,0 l/m 2 min 0 min 347 W/m 3,2 km/h (1 Bft) 97,87 %
31.05.2020 18:36 23,1 C 22,8 C 20,0 C 47 % 1021,2 hPa 0,0 l/m 2 min 0 min 360 W/m 6,4 km/h (2 Bft) 97,87 %
31.05.2020 18:34 23,2 C 23,3 C 20,0 C 47 % 1021,2 hPa 0,0 l/m 2 min 0 min 393 W/m 9,7 km/h (2 Bft) 97,87 %
31.05.2020 18:32 23,2 C 23,3 C 20,0 C 48 % 1021,3 hPa 0,0 l/m 2 min 0 min 406 W/m 9,7 km/h (2 Bft) 97,83 %
31.05.2020 18:30 23,3 C 23,3 C 20,6 C 47 % 1021,3 hPa 0,0 l/m 2 min 0 min 411 W/m 9,7 km/h (2 Bft) 97,87 %
31.05.2020 18:28 23,3 C 23,3 C 20,6 C 48 % 1021,3 hPa 0,0 l/m 2 min 0 min 416 W/m 9,7 km/h (2 Bft) 97,87 %
31.05.2020 18:26 23,3 C 23,3 C 20,6 C 47 % 1021,3 hPa 0,0 l/m 2 min 0 min 417 W/m 9,7 km/h (2 Bft) 95,74 %
31.05.2020 18:24 23,4 C 23,3 C 20,6 C 46 % 1021,3 hPa 0,0 l/m 2 min 0 min 418 W/m 9,7 km/h (2 Bft) 97,87 %
31.05.2020 18:22 23,4 C 23,3 C 20,6 C 47 % 1021,3 hPa 0,0 l/m 2 min 0 min 421 W/m 6,4 km/h (2 Bft) 97,87 %
31.05.2020 18:20 23,5 C 23,3 C 20,6 C 46 % 1021,3 hPa 0,0 l/m 2 min 0 min 430 W/m 9,7 km/h (2 Bft) 95,65 %
31.05.2020 18:18 23,6 C 23,9 C 20,6 C 46 % 1021,3 hPa 0,0 l/m 2 min 0 min 431 W/m 9,7 km/h (2 Bft) 95,56 %
31.05.2020 18:16 23,6 C 23,9 C 20,6 C 46 % 1021,3 hPa 0,0 l/m 2 min 0 min 430 W/m 12,9 km/h (3 Bft) 95,74 %
31.05.2020 18:14 23,7 C 23,9 C 20,6 C 46 % 1021,3 hPa 0,0 l/m 2 min 0 min 444 W/m 9,7 km/h (2 Bft) 97,87 %
31.05.2020 18:12 23,7 C 23,9 C 20,6 C 46 % 1021,3 hPa 0,0 l/m 2 min 0 min 444 W/m 9,7 km/h (2 Bft) 95,65 %
31.05.2020 18:10 23,7 C 24,4 C 20,6 C 46 % 1021,3 hPa 0,0 l/m 2 min 0 min 452 W/m 12,9 km/h (3 Bft) 97,87 %
31.05.2020 18:08 23,7 C 25,0 C 20,6 C 46 % 1021,3 hPa 0,0 l/m 4 min 0 min 464 W/m 9,7 km/h (2 Bft) 96,81 %
31.05.2020 18:04 23,7 C 25,0 C 21,1 C 47 % 1021,4 hPa 0,0 l/m 2 min 0 min 484 W/m 12,9 km/h (3 Bft) 97,87 %
31.05.2020 18:02 23,8 C 25,0 C 21,1 C 48 % 1021,4 hPa 0,0 l/m 2 min 0 min 490 W/m 9,7 km/h (2 Bft) 95,65 %
31.05.2020 18:00 23,8 C 25,0 C 21,1 C 48 % 1021,4 hPa 0,0 l/m 2 min 0 min 504 W/m 12,9 km/h (3 Bft) 97,87 %
31.05.2020 17:58 23,8 C 25,0 C 21,1 C 47 % 1021,4 hPa 0,0 l/m 2 min 0 min 510 W/m 12,9 km/h (3 Bft) 95,74 %
31.05.2020 17:56 23,8 C 25,0 C 21,1 C 49 % 1021,4 hPa 0,0 l/m 2 min 0 min 511 W/m 16,1 km/h (3 Bft) 95,74 %
31.05.2020 17:54 23,8 C 25,6 C 21,1 C 48 % 1021,4 hPa 0,0 l/m 2 min 0 min 524 W/m 6,4 km/h (2 Bft) 95,74 %
31.05.2020 17:52 23,8 C 25,0 C 21,1 C 47 % 1021,5 hPa 0,0 l/m 2 min 0 min 532 W/m 9,7 km/h (2 Bft) 95,74 %
31.05.2020 17:50 23,9 C 25,0 C 21,1 C 47 % 1021,4 hPa 0,0 l/m 2 min 0 min 556 W/m 12,9 km/h (3 Bft) 97,83 %
31.05.2020 17:48 24,0 C 25,6 C 21,1 C 47 % 1021,5 hPa 0,0 l/m 2 min 0 min 567 W/m 12,9 km/h (3 Bft) 97,87 %
31.05.2020 17:46 24,0 C 25,0 C 21,1 C 45 % 1021,5 hPa 0,0 l/m 2 min 0 min 576 W/m 6,4 km/h (2 Bft) 95,74 %
31.05.2020 17:44 24,0 C 25,6 C 21,1 C 47 % 1021,5 hPa 0,0 l/m 2 min 0 min 591 W/m 12,9 km/h (3 Bft) 95,74 %
31.05.2020 17:42 24,1 C 25,6 C 21,1 C 47 % 1021,5 hPa 0,0 l/m 2 min 0 min 574 W/m 9,7 km/h (2 Bft) 97,87 %
31.05.2020 17:40 24,1 C 25,0 C 21,1 C 47 % 1021,4 hPa 0,0 l/m 2 min 0 min 529 W/m 6,4 km/h (2 Bft) 97,87 %
31.05.2020 17:38 24,1 C 25,0 C 21,1 C 47 % 1021,4 hPa 0,0 l/m 2 min 0 min 495 W/m 9,7 km/h (2 Bft) 97,87 %
31.05.2020 17:36 24,1 C 25,0 C 21,7 C 46 % 1021,5 hPa 0,0 l/m 2 min 0 min 443 W/m 9,7 km/h (2 Bft) 95,74 %
31.05.2020 17:34 24,1 C 25,6 C 21,7 C 46 % 1021,5 hPa 0,0 l/m 2 min 0 min 568 W/m 9,7 km/h (2 Bft) 95,74 %
31.05.2020 17:32 24,1 C 25,6 C 21,7 C 46 % 1021,5 hPa 0,0 l/m 2 min 0 min 603 W/m 12,9 km/h (3 Bft) 97,87 %
31.05.2020 17:30 24,1 C 25,6 C 21,7 C 46 % 1021,5 hPa 0,0 l/m 2 min 0 min 537 W/m 12,9 km/h (3 Bft) 97,87 %
31.05.2020 17:28 24,1 C 25,6 C 21,7 C 46 % 1021,5 hPa 0,0 l/m 2 min 0 min 472 W/m 9,7 km/h (2 Bft) 97,87 %
31.05.2020 17:26 24,1 C 26,1 C 22,2 C 47 % 1021,5 hPa 0,0 l/m 2 min 0 min 521 W/m 6,4 km/h (2 Bft) 97,87 %
31.05.2020 17:24 24,1 C 26,7 C 22,2 C 46 % 1021,5 hPa 0,0 l/m 2 min 0 min 637 W/m 6,4 km/h (2 Bft) 97,87 %
31.05.2020 17:22 24,1 C 26,7 C 22,2 C 47 % 1021,5 hPa 0,0 l/m 2 min 0 min 671 W/m 9,7 km/h (2 Bft) 97,87 %
31.05.2020 17:20 24,1 C 26,7 C 22,2 C 47 % 1021,5 hPa 0,0 l/m 2 min 0 min 664 W/m 16,1 km/h (3 Bft) 97,83 %
31.05.2020 17:18 24,0 C 27,2 C 22,2 C 48 % 1021,5 hPa 0,0 l/m 2 min 0 min 644 W/m 6,4 km/h (2 Bft) 95,74 %
31.05.2020 17:16 24,0 C 26,7 C 22,2 C 47 % 1021,5 hPa 0,0 l/m 2 min 0 min 654 W/m 6,4 km/h (2 Bft) 100,00 %
31.05.2020 17:14 23,9 C 26,7 C 22,2 C 48 % 1021,6 hPa 0,0 l/m 2 min 0 min 665 W/m 12,9 km/h (3 Bft) 100,00 %
31.05.2020 17:12 23,9 C 26,1 C 21,7 C 49 % 1021,5 hPa 0,0 l/m 2 min 0 min 644 W/m 3,2 km/h (1 Bft) 100,00 %
31.05.2020 17:10 23,9 C 25,6 C 21,7 C 47 % 1021,6 hPa 0,0 l/m 2 min 0 min 569 W/m 6,4 km/h (2 Bft) 97,87 %
31.05.2020 17:08 24,0 C 25,0 C 21,7 C 46 % 1021,6 hPa 0,0 l/m 0 min 0 min 288 W/m 6,4 km/h (2 Bft) 97,87 %
31.05.2020 17:06 24,1 C 25,6 C 21,7 C 48 % 1021,6 hPa 0,0 l/m 2 min 0 min 633 W/m 6,4 km/h (2 Bft) 97,87 %
31.05.2020 17:04 24,1 C 26,7 C 21,7 C 48 % 1021,6 hPa 0,0 l/m 2 min 0 min 707 W/m 9,7 km/h (2 Bft) 97,83 %
31.05.2020 17:02 24,1 C 26,1 C 21,7 C 45 % 1021,6 hPa 0,0 l/m 2 min 0 min 754 W/m 12,9 km/h (3 Bft) 95,83 %
31.05.2020 17:00 24,2 C 25,0 C 21,7 C 44 % 1021,5 hPa 0,0 l/m 2 min 0 min 655 W/m 12,9 km/h (3 Bft) 97,87 %
31.05.2020 16:58 24,3 C 23,9 C 21,7 C 45 % 1021,6 hPa 0,0 l/m 2 min 0 min 439 W/m 9,7 km/h (2 Bft) 97,83 %
31.05.2020 16:56 24,4 C 22,8 C 21,7 C 45 % 1021,6 hPa 0,0 l/m 0 min 0 min 247 W/m 9,7 km/h (2 Bft) 97,87 %
31.05.2020 16:54 24,6 C 23,3 C 21,7 C 45 % 1021,6 hPa 0,0 l/m 0 min 0 min 228 W/m 6,4 km/h (2 Bft) 97,87 %
31.05.2020 16:52 24,7 C 23,9 C 22,2 C 45 % 1021,6 hPa 0,0 l/m 0 min 0 min 249 W/m 9,7 km/h (2 Bft) 97,87 %
31.05.2020 16:50 24,8 C 26,1 C 22,8 C 45 % 1021,6 hPa 0,0 l/m 2 min 0 min 507 W/m 6,4 km/h (2 Bft) 95,74 %
31.05.2020 16:48 24,8 C 27,8 C 22,8 C 46 % 1021,6 hPa 0,0 l/m 2 min 0 min 755 W/m 16,1 km/h (3 Bft) 97,87 %
31.05.2020 16:46 24,8 C 28,9 C 22,8 C 48 % 1021,6 hPa 0,0 l/m 2 min 0 min 815 W/m 6,4 km/h (2 Bft) 95,65 %
31.05.2020 16:44 24,7 C 28,3 C 22,8 C 48 % 1021,6 hPa 0,0 l/m 2 min 0 min 821 W/m 6,4 km/h (2 Bft) 97,87 %
31.05.2020 16:42 24,7 C 27,8 C 22,8 C 47 % 1021,6 hPa 0,0 l/m 2 min 0 min 756 W/m 12,9 km/h (3 Bft) 97,87 %
31.05.2020 16:40 24,7 C 27,8 C 22,8 C 45 % 1021,6 hPa 0,0 l/m 2 min 0 min 755 W/m 16,1 km/h (3 Bft) 97,87 %
31.05.2020 16:38 24,7 C 27,2 C 22,8 C 46 % 1021,6 hPa 0,0 l/m 2 min 0 min 770 W/m 16,1 km/h (3 Bft) 97,87 %
31.05.2020 16:36 24,7 C 27,8 C 22,8 C 47 % 1021,6 hPa 0,0 l/m 2 min 0 min 794 W/m 12,9 km/h (3 Bft) 97,87 %
31.05.2020 16:34 24,7 C 27,8 C 22,8 C 47 % 1021,6 hPa 0,0 l/m 2 min 0 min 801 W/m 6,4 km/h (2 Bft) 97,83 %
31.05.2020 16:32 24,7 C 27,2 C 22,8 C 45 % 1021,6 hPa 0,0 l/m 2 min 0 min 796 W/m 6,4 km/h (2 Bft) 97,92 %
31.05.2020 16:30 24,7 C 26,1 C 22,8 C 45 % 1021,6 hPa 0,0 l/m 2 min 0 min 801 W/m 3,2 km/h (1 Bft) 93,62 %
31.05.2020 16:28 24,7 C 26,1 C 22,8 C 47 % 1021,6 hPa 0,0 l/m 2 min 0 min 807 W/m 12,9 km/h (3 Bft) 97,87 %
31.05.2020 16:26 24,7 C 27,8 C 22,8 C 47 % 1021,6 hPa 0,0 l/m 2 min 0 min 792 W/m 9,7 km/h (2 Bft) 97,87 %
31.05.2020 16:24 24,7 C 27,8 C 22,8 C 46 % 1021,6 hPa 0,0 l/m 2 min 0 min 770 W/m 9,7 km/h (2 Bft) 95,74 %
31.05.2020 16:22 24,7 C 27,2 C 22,8 C 45 % 1021,6 hPa 0,0 l/m 2 min 0 min 770 W/m 9,7 km/h (2 Bft) 97,83 %
31.05.2020 16:20 24,7 C 27,8 C 22,8 C 45 % 1021,6 hPa 0,0 l/m 2 min 0 min 767 W/m 9,7 km/h (2 Bft) 95,74 %
31.05.2020 16:18 24,6 C 27,8 C 22,8 C 45 % 1021,6 hPa 0,0 l/m 2 min 0 min 775 W/m 12,9 km/h (3 Bft) 95,74 %
31.05.2020 16:16 24,6 C 27,8 C 22,8 C 45 % 1021,7 hPa 0,0 l/m 2 min 0 min 805 W/m 25,7 km/h (4 Bft) 97,87 %
31.05.2020 16:14 24,6 C 27,8 C 23,3 C 46 % 1021,6 hPa 0,0 l/m 2 min 0 min 777 W/m 9,7 km/h (2 Bft) 97,87 %
31.05.2020 16:12 24,5 C 27,8 C 23,3 C 46 % 1021,7 hPa 0,0 l/m 2 min 0 min 758 W/m 12,9 km/h (3 Bft) 97,83 %
31.05.2020 16:10 24,4 C 27,8 C 23,3 C 47 % 1021,7 hPa 0,0 l/m 2 min 0 min 778 W/m 9,7 km/h (2 Bft) 97,44 %
31.05.2020 16:08 24,4 C 27,8 C 22,8 C 47 % 1021,6 hPa 0,0 l/m 2 min 0 min 779 W/m 6,4 km/h (2 Bft) 100,00 %
31.05.2020 16:06 24,4 C 27,2 C 22,8 C 46 % 1021,8 hPa 0,0 l/m 2 min 0 min 794 W/m 9,7 km/h (2 Bft) 97,87 %
31.05.2020 16:04 24,3 C 27,8 C 22,8 C 46 % 1021,7 hPa 0,0 l/m 2 min 0 min 796 W/m 6,4 km/h (2 Bft) 100,00 %
31.05.2020 16:02 24,3 C 27,2 C 22,8 C 46 % 1021,7 hPa 0,0 l/m 2 min 0 min 787 W/m 16,1 km/h (3 Bft) 100,00 %
31.05.2020 16:00 24,3 C 27,2 C 22,8 C 47 % 1021,7 hPa 0,0 l/m 2 min 0 min 778 W/m 12,9 km/h (3 Bft) 100,00 %
_ Min-Zeit 05:56 02:56 03:48 13:50 15:34 - - - - 20:32 05:52
Minimum _ 11,1 C 10,0 C 9,4 C 39 % 1020,7 hPa - - - - 0,0 km/h (0 Bft) 56,52 %
_ Max-Zeit 14:58 13:56 13:44 07:06 08:28 16:00 18:08 16:00 13:30 16:16 16:00
Maximum _ 28,9 C 33,9 C 35,6 C 88 % 1023,0 hPa 0,0 l/m 4 min 0 min 991 W/m 25,7 km/h
NO (4 Bft)
100,00 %
Durchschnitt _ 19,5 C 20,7 C 18,8 C 61 % 1022,1 hPa #0,0 l/m #6:42 h #0 min. 567 W/m 4,9 km/h (1 Bft) 97,67 %
© 2020 W. Hausmann